<?xml version='1.0' encoding='UTF-8'?><gpx version="1.1" creator="JPX - https://github.com/jenetics/jpx" xmlns="http://www.topografix.com/GPX/1/1"><trk><trkseg><trkpt lat="45.758327" lon="8.9686308"><ele>373.0</ele><time>2026-04-07T14:06:30.395Z</time></trkpt><trkpt lat="45.7582612" lon="8.96859"><ele>373.0</ele><time>2026-04-07T14:06:34.434Z</time></trkpt><trkpt lat="45.758198" lon="8.9685875"><ele>373.0</ele><time>2026-04-07T14:06:38.431Z</time></trkpt><trkpt lat="45.7581215" lon="8.9685579"><ele>373.0</ele><time>2026-04-07T14:06:42.917Z</time></trkpt><trkpt lat="45.7580462" lon="8.9685364"><ele>373.0</ele><time>2026-04-07T14:06:48.155Z</time></trkpt><trkpt lat="45.7579714" lon="8.9685174"><ele>373.0</ele><time>2026-04-07T14:06:53.17Z</time></trkpt><trkpt lat="45.7578977" lon="8.9684995"><ele>373.0</ele><time>2026-04-07T14:06:58.129Z</time></trkpt><trkpt lat="45.7578291" lon="8.9684278"><ele>373.0</ele><time>2026-04-07T14:08:32.155Z</time></trkpt><trkpt lat="45.7577786" lon="8.9683647"><ele>373.0</ele><time>2026-04-07T14:08:38.134Z</time></trkpt><trkpt lat="45.7577557" lon="8.9682523"><ele>373.0</ele><time>2026-04-07T14:08:42.06Z</time></trkpt><trkpt lat="45.7577487" lon="8.9681497"><ele>373.0</ele><time>2026-04-07T14:08:45.958Z</time></trkpt><trkpt lat="45.757738" lon="8.9680545"><ele>373.0</ele><time>2026-04-07T14:08:50.89Z</time></trkpt><trkpt lat="45.7577205" lon="8.9679577"><ele>373.0</ele><time>2026-04-07T14:08:55.731Z</time></trkpt><trkpt lat="45.75771" lon="8.9678504"><ele>373.0</ele><time>2026-04-07T14:09:00.69Z</time></trkpt><trkpt lat="45.7576962" lon="8.9677521"><ele>373.7142857142857</ele><time>2026-04-07T14:09:05.592Z</time></trkpt><trkpt lat="45.7576785" lon="8.9676525"><ele>374.42857142857144</ele><time>2026-04-07T14:09:10.509Z</time></trkpt><trkpt lat="45.7576537" lon="8.9675568"><ele>375.1428571428571</ele><time>2026-04-07T14:09:16.351Z</time></trkpt><trkpt lat="45.7576219" lon="8.967478"><ele>375.8571428571429</ele><time>2026-04-07T14:09:21.232Z</time></trkpt><trkpt lat="45.7576272" lon="8.9673782"><ele>376.57142857142856</ele><time>2026-04-07T14:09:27.111Z</time></trkpt><trkpt lat="45.7575972" lon="8.9672867"><ele>377.2857142857143</ele><time>2026-04-07T14:09:33.031Z</time></trkpt><trkpt lat="45.7575568" lon="8.9672081"><ele>378.0</ele><time>2026-04-07T14:09:41.91Z</time></trkpt><trkpt lat="45.7575256" lon="8.9671291"><ele>378.3333333333333</ele><time>2026-04-07T14:09:50.176Z</time></trkpt><trkpt lat="45.7574953" lon="8.9670358"><ele>378.6666666666667</ele><time>2026-04-07T14:09:58.195Z</time></trkpt><trkpt lat="45.757446" lon="8.9669197"><ele>379.0</ele><time>2026-04-07T14:10:02.07Z</time></trkpt><trkpt lat="45.7574075" lon="8.9668199"><ele>379.33333333333337</ele><time>2026-04-07T14:10:04.992Z</time></trkpt><trkpt lat="45.7574031" lon="8.9667235"><ele>379.6666666666667</ele><time>2026-04-07T14:10:08.934Z</time></trkpt><trkpt lat="45.7574086" lon="8.9666178"><ele>380.0</ele><time>2026-04-07T14:10:13.87Z</time></trkpt><trkpt lat="45.757449" lon="8.9665294"><ele>380.5</ele><time>2026-04-07T14:10:17.857Z</time></trkpt><trkpt lat="45.7575247" lon="8.9664857"><ele>381.0</ele><time>2026-04-07T14:10:21.774Z</time></trkpt><trkpt lat="45.7575612" lon="8.9664049"><ele>381.5</ele><time>2026-04-07T14:10:26.972Z</time></trkpt><trkpt lat="45.7576038" lon="8.9663309"><ele>382.0</ele><time>2026-04-07T14:10:39.19Z</time></trkpt><trkpt lat="45.7576735" lon="8.9661656"><ele>382.5</ele><time>2026-04-07T14:10:56.167Z</time></trkpt><trkpt lat="45.7576914" lon="8.9660756"><ele>383.0</ele><time>2026-04-07T14:11:02.169Z</time></trkpt><trkpt lat="45.7576785" lon="8.9659852"><ele>383.5</ele><time>2026-04-07T14:11:13.237Z</time></trkpt><trkpt lat="45.757703" lon="8.9658369"><ele>384.0</ele><time>2026-04-07T14:11:14.154Z</time></trkpt><trkpt lat="45.7577045" lon="8.9657418"><ele>384.5</ele><time>2026-04-07T14:11:20.226Z</time></trkpt><trkpt lat="45.757717" lon="8.9656518"><ele>385.0</ele><time>2026-04-07T14:11:27.215Z</time></trkpt><trkpt lat="45.7577942" lon="8.9655589"><ele>385.49999999999994</ele><time>2026-04-07T14:11:32.141Z</time></trkpt><trkpt lat="45.7577522" lon="8.9654515"><ele>386.0</ele><time>2026-04-07T14:11:44.171Z</time></trkpt><trkpt lat="45.7576805" lon="8.9654602"><ele>386.5714285714286</ele><time>2026-04-07T14:11:50.154Z</time></trkpt><trkpt lat="45.7576145" lon="8.9654703"><ele>387.14285714285717</ele><time>2026-04-07T14:11:56.201Z</time></trkpt><trkpt lat="45.7575498" lon="8.9654754"><ele>387.7142857142857</ele><time>2026-04-07T14:12:02.09Z</time></trkpt><trkpt lat="45.757452" lon="8.9654934"><ele>388.28571428571433</ele><time>2026-04-07T14:12:11.098Z</time></trkpt><trkpt lat="45.757384" lon="8.9654683"><ele>388.85714285714283</ele><time>2026-04-07T14:12:15.174Z</time></trkpt><trkpt lat="45.7573127" lon="8.9654717"><ele>389.42857142857144</ele><time>2026-04-07T14:12:19.213Z</time></trkpt><trkpt lat="45.7572497" lon="8.9654256"><ele>390.0</ele><time>2026-04-07T14:12:24.156Z</time></trkpt><trkpt lat="45.7571907" lon="8.9653845"><ele>390.0</ele><time>2026-04-07T14:12:31.153Z</time></trkpt><trkpt lat="45.7571275" lon="8.9653424"><ele>390.0</ele><time>2026-04-07T14:12:38.216Z</time></trkpt><trkpt lat="45.7570835" lon="8.9652708"><ele>390.0</ele><time>2026-04-07T14:12:44.205Z</time></trkpt><trkpt lat="45.7570509" lon="8.9651874"><ele>390.0</ele><time>2026-04-07T14:12:51.077Z</time></trkpt><trkpt lat="45.7569513" lon="8.965075"><ele>390.0</ele><time>2026-04-07T14:13:04.141Z</time></trkpt><trkpt lat="45.7568542" lon="8.9649094"><ele>389.5</ele><time>2026-04-07T14:13:09.182Z</time></trkpt><trkpt lat="45.7567477" lon="8.964828"><ele>389.0</ele><time>2026-04-07T14:13:24.19Z</time></trkpt><trkpt lat="45.7566782" lon="8.9648274"><ele>388.5</ele><time>2026-04-07T14:13:32.255Z</time></trkpt><trkpt lat="45.756611" lon="8.9648394"><ele>388.0</ele><time>2026-04-07T14:13:39.199Z</time></trkpt><trkpt lat="45.7565441" lon="8.9648485"><ele>387.5</ele><time>2026-04-07T14:13:46.253Z</time></trkpt><trkpt lat="45.7564566" lon="8.9648518"><ele>387.0</ele><time>2026-04-07T14:13:51.248Z</time></trkpt><trkpt lat="45.7563874" lon="8.9648547"><ele>387.0</ele><time>2026-04-07T14:13:56.654Z</time></trkpt><trkpt lat="45.7563156" lon="8.9648714"><ele>387.0</ele><time>2026-04-07T14:14:02.228Z</time></trkpt><trkpt lat="45.7562659" lon="8.9649354"><ele>387.0</ele><time>2026-04-07T14:14:08.197Z</time></trkpt><trkpt lat="45.7562155" lon="8.9650066"><ele>387.0</ele><time>2026-04-07T14:14:15.175Z</time></trkpt><trkpt lat="45.7561146" lon="8.9651471"><ele>387.0</ele><time>2026-04-07T14:14:23.054Z</time></trkpt><trkpt lat="45.7560668" lon="8.9652084"><ele>387.0</ele><time>2026-04-07T14:14:28.248Z</time></trkpt><trkpt lat="45.7559288" lon="8.9653191"><ele>386.5</ele><time>2026-04-07T14:14:39.128Z</time></trkpt><trkpt lat="45.7558682" lon="8.9653601"><ele>386.0</ele><time>2026-04-07T14:14:45.192Z</time></trkpt><trkpt lat="45.7558028" lon="8.9654103"><ele>385.5</ele><time>2026-04-07T14:14:51.194Z</time></trkpt><trkpt lat="45.7557318" lon="8.965429"><ele>385.0</ele><time>2026-04-07T14:14:57.222Z</time></trkpt><trkpt lat="45.755664" lon="8.9654446"><ele>384.5</ele><time>2026-04-07T14:15:03.179Z</time></trkpt><trkpt lat="45.7555998" lon="8.9654154"><ele>384.0</ele><time>2026-04-07T14:15:07.189Z</time></trkpt><trkpt lat="45.7554975" lon="8.9655151"><ele>383.99999999999994</ele><time>2026-04-07T14:15:09.137Z</time></trkpt><trkpt lat="45.7554224" lon="8.9655157"><ele>384.0</ele><time>2026-04-07T14:15:14.179Z</time></trkpt><trkpt lat="45.7553593" lon="8.9655037"><ele>384.0</ele><time>2026-04-07T14:15:18.188Z</time></trkpt><trkpt lat="45.7552827" lon="8.9654246"><ele>384.0</ele><time>2026-04-07T14:15:27.239Z</time></trkpt><trkpt lat="45.7552274" lon="8.9653756"><ele>384.0</ele><time>2026-04-07T14:15:29.977Z</time></trkpt><trkpt lat="45.7551637" lon="8.9653338"><ele>383.99999999999994</ele><time>2026-04-07T14:15:36.176Z</time></trkpt><trkpt lat="45.7550901" lon="8.9652997"><ele>384.0</ele><time>2026-04-07T14:15:41.217Z</time></trkpt><trkpt lat="45.755017" lon="8.9652982"><ele>383.85714285714283</ele><time>2026-04-07T14:15:49.058Z</time></trkpt><trkpt lat="45.7549513" lon="8.9653041"><ele>383.7142857142857</ele><time>2026-04-07T14:15:53.229Z</time></trkpt><trkpt lat="45.754892" lon="8.9653487"><ele>383.57142857142856</ele><time>2026-04-07T14:15:58.089Z</time></trkpt><trkpt lat="45.7548296" lon="8.9654006"><ele>383.42857142857144</ele><time>2026-04-07T14:16:04.214Z</time></trkpt><trkpt lat="45.7547665" lon="8.9654439"><ele>383.2857142857143</ele><time>2026-04-07T14:16:09.173Z</time></trkpt><trkpt lat="45.7547037" lon="8.9654908"><ele>383.1428571428571</ele><time>2026-04-07T14:16:14.213Z</time></trkpt><trkpt lat="45.7546488" lon="8.9655604"><ele>383.0</ele><time>2026-04-07T14:16:18.223Z</time></trkpt><trkpt lat="45.754601" lon="8.9656398"><ele>383.0</ele><time>2026-04-07T14:16:22.233Z</time></trkpt><trkpt lat="45.7545439" lon="8.965728"><ele>383.0</ele><time>2026-04-07T14:16:26.13Z</time></trkpt><trkpt lat="45.7545036" lon="8.9658047"><ele>383.0</ele><time>2026-04-07T14:16:29.239Z</time></trkpt><trkpt lat="45.7544581" lon="8.9658987"><ele>383.0</ele><time>2026-04-07T14:16:35.179Z</time></trkpt><trkpt lat="45.754399" lon="8.9661084"><ele>383.0</ele><time>2026-04-07T14:16:42.168Z</time></trkpt><trkpt lat="45.7543576" lon="8.9661778"><ele>382.7142857142857</ele><time>2026-04-07T14:16:50.188Z</time></trkpt><trkpt lat="45.754295" lon="8.966149"><ele>382.42857142857144</ele><time>2026-04-07T14:16:59.17Z</time></trkpt><trkpt lat="45.7542512" lon="8.9660757"><ele>382.1428571428571</ele><time>2026-04-07T14:17:12.03Z</time></trkpt><trkpt lat="45.7542245" lon="8.9659764"><ele>381.8571428571429</ele><time>2026-04-07T14:17:19.174Z</time></trkpt><trkpt lat="45.7541966" lon="8.9658745"><ele>381.5714285714286</ele><time>2026-04-07T14:17:22.132Z</time></trkpt><trkpt lat="45.7541734" lon="8.9657812"><ele>381.2857142857143</ele><time>2026-04-07T14:17:25.492Z</time></trkpt><trkpt lat="45.7541397" lon="8.9656874"><ele>381.0</ele><time>2026-04-07T14:17:29.831Z</time></trkpt><trkpt lat="45.7541219" lon="8.965599"><ele>381.0</ele><time>2026-04-07T14:17:33.129Z</time></trkpt><trkpt lat="45.7541149" lon="8.9655011"><ele>381.0</ele><time>2026-04-07T14:17:39.225Z</time></trkpt><trkpt lat="45.7541003" lon="8.9654108"><ele>381.0</ele><time>2026-04-07T14:17:43.128Z</time></trkpt><trkpt lat="45.7540813" lon="8.9653168"><ele>381.0</ele><time>2026-04-07T14:17:50.223Z</time></trkpt><trkpt lat="45.7540783" lon="8.9652206"><ele>381.0</ele><time>2026-04-07T14:17:56.18Z</time></trkpt><trkpt lat="45.7540596" lon="8.9651272"><ele>381.0</ele><time>2026-04-07T14:18:03.17Z</time></trkpt><trkpt lat="45.7540799" lon="8.9650318"><ele>381.0</ele><time>2026-04-07T14:18:11.189Z</time></trkpt><trkpt lat="45.7541263" lon="8.9649674"><ele>382.1666666666667</ele><time>2026-04-07T14:18:15.199Z</time></trkpt><trkpt lat="45.7541266" lon="8.964862"><ele>383.33333333333337</ele><time>2026-04-07T14:18:24.136Z</time></trkpt><trkpt lat="45.754071" lon="8.9647614"><ele>384.5</ele><time>2026-04-07T14:18:42.128Z</time></trkpt><trkpt lat="45.7540207" lon="8.9647069"><ele>385.6666666666667</ele><time>2026-04-07T14:18:43.094Z</time></trkpt><trkpt lat="45.7539613" lon="8.9646525"><ele>386.83333333333337</ele><time>2026-04-07T14:18:49.227Z</time></trkpt><trkpt lat="45.7538664" lon="8.9644936"><ele>388.0</ele><time>2026-04-07T14:18:57.132Z</time></trkpt><trkpt lat="45.7538548" lon="8.9644047"><ele>388.0</ele><time>2026-04-07T14:19:05.098Z</time></trkpt><trkpt lat="45.7538327" lon="8.96432"><ele>388.0</ele><time>2026-04-07T14:19:14.152Z</time></trkpt><trkpt lat="45.7537689" lon="8.9640841"><ele>388.0</ele><time>2026-04-07T14:19:22.223Z</time></trkpt><trkpt lat="45.7537444" lon="8.9639992"><ele>388.0</ele><time>2026-04-07T14:19:28.181Z</time></trkpt><trkpt lat="45.7536752" lon="8.9638064"><ele>388.83333333333337</ele><time>2026-04-07T14:19:35.171Z</time></trkpt><trkpt lat="45.7536584" lon="8.9637085"><ele>389.6666666666667</ele><time>2026-04-07T14:19:42.238Z</time></trkpt><trkpt lat="45.7536355" lon="8.9636075"><ele>390.5</ele><time>2026-04-07T14:19:48.231Z</time></trkpt><trkpt lat="45.7536015" lon="8.9634524"><ele>391.33333333333337</ele><time>2026-04-07T14:19:55.114Z</time></trkpt><trkpt lat="45.7535857" lon="8.9633571"><ele>392.1666666666667</ele><time>2026-04-07T14:20:00.146Z</time></trkpt><trkpt lat="45.7535642" lon="8.9632386"><ele>393.0</ele><time>2026-04-07T14:20:05.187Z</time></trkpt><trkpt lat="45.7535588" lon="8.9631427"><ele>393.4</ele><time>2026-04-07T14:20:09.248Z</time></trkpt><trkpt lat="45.7535879" lon="8.9630507"><ele>393.79999999999995</ele><time>2026-04-07T14:20:14.756Z</time></trkpt><trkpt lat="45.7536228" lon="8.962953"><ele>394.2</ele><time>2026-04-07T14:20:19.855Z</time></trkpt><trkpt lat="45.7537274" lon="8.962838"><ele>394.6</ele><time>2026-04-07T14:20:27.185Z</time></trkpt><trkpt lat="45.7537718" lon="8.9627723"><ele>395.0</ele><time>2026-04-07T14:20:30.164Z</time></trkpt><trkpt lat="45.7538618" lon="8.9626446"><ele>395.0</ele><time>2026-04-07T14:20:35.205Z</time></trkpt><trkpt lat="45.7539156" lon="8.9625513"><ele>395.0</ele><time>2026-04-07T14:20:39.215Z</time></trkpt><trkpt lat="45.7539603" lon="8.9624685"><ele>395.0</ele><time>2026-04-07T14:20:43.225Z</time></trkpt><trkpt lat="45.754015" lon="8.9624059"><ele>395.0</ele><time>2026-04-07T14:20:48.149Z</time></trkpt><trkpt lat="45.7540521" lon="8.9623319"><ele>395.0</ele><time>2026-04-07T14:20:53.233Z</time></trkpt><trkpt lat="45.754094" lon="8.9622473"><ele>395.0</ele><time>2026-04-07T14:20:58.234Z</time></trkpt><trkpt lat="45.754136" lon="8.9621645"><ele>395.0</ele><time>2026-04-07T14:21:03.161Z</time></trkpt><trkpt lat="45.7541719" lon="8.9620862"><ele>395.4</ele><time>2026-04-07T14:21:07.172Z</time></trkpt><trkpt lat="45.7543146" lon="8.9619346"><ele>395.8</ele><time>2026-04-07T14:21:17.14Z</time></trkpt><trkpt lat="45.7544338" lon="8.9618507"><ele>396.20000000000005</ele><time>2026-04-07T14:21:25.734Z</time></trkpt><trkpt lat="45.7544895" lon="8.961808"><ele>396.6</ele><time>2026-04-07T14:21:27.175Z</time></trkpt><trkpt lat="45.7545573" lon="8.9618078"><ele>397.0</ele><time>2026-04-07T14:21:32.149Z</time></trkpt><trkpt lat="45.7546357" lon="8.9617829"><ele>397.00000000000006</ele><time>2026-04-07T14:21:36.248Z</time></trkpt><trkpt lat="45.754701" lon="8.9617625"><ele>397.0</ele><time>2026-04-07T14:21:40.091Z</time></trkpt><trkpt lat="45.7547708" lon="8.9617612"><ele>397.0</ele><time>2026-04-07T14:21:44.238Z</time></trkpt><trkpt lat="45.7548381" lon="8.9617826"><ele>397.0</ele><time>2026-04-07T14:21:49.22Z</time></trkpt><trkpt lat="45.755003" lon="8.9617981"><ele>397.00000000000006</ele><time>2026-04-07T14:21:57.128Z</time></trkpt><trkpt lat="45.7550651" lon="8.9618515"><ele>397.0</ele><time>2026-04-07T14:22:03.129Z</time></trkpt><trkpt lat="45.7551316" lon="8.9619043"><ele>397.0</ele><time>2026-04-07T14:22:07.209Z</time></trkpt><trkpt lat="45.7552018" lon="8.9619424"><ele>397.0</ele><time>2026-04-07T14:22:12.075Z</time></trkpt><trkpt lat="45.7552646" lon="8.9619619"><ele>397.0</ele><time>2026-04-07T14:22:17.174Z</time></trkpt><trkpt lat="45.7553235" lon="8.9620127"><ele>397.0</ele><time>2026-04-07T14:22:22.218Z</time></trkpt><trkpt lat="45.7553797" lon="8.9620729"><ele>397.0</ele><time>2026-04-07T14:22:27.144Z</time></trkpt><trkpt lat="45.7554498" lon="8.9621243"><ele>397.0</ele><time>2026-04-07T14:22:31.155Z</time></trkpt><trkpt lat="45.7555146" lon="8.9621615"><ele>397.0</ele><time>2026-04-07T14:22:35.21Z</time></trkpt><trkpt lat="45.755578" lon="8.9622078"><ele>397.1666666666667</ele><time>2026-04-07T14:22:39.175Z</time></trkpt><trkpt lat="45.7556446" lon="8.9622294"><ele>397.33333333333337</ele><time>2026-04-07T14:22:45.132Z</time></trkpt><trkpt lat="45.755708" lon="8.962205"><ele>397.5</ele><time>2026-04-07T14:22:55.215Z</time></trkpt><trkpt lat="45.7557778" lon="8.9621587"><ele>397.66666666666663</ele><time>2026-04-07T14:23:03.128Z</time></trkpt><trkpt lat="45.7558497" lon="8.9621187"><ele>397.8333333333333</ele><time>2026-04-07T14:23:13.203Z</time></trkpt><trkpt lat="45.7559468" lon="8.9619896"><ele>398.0</ele><time>2026-04-07T14:23:16.182Z</time></trkpt><trkpt lat="45.7559845" lon="8.9619169"><ele>397.99999999999994</ele><time>2026-04-07T14:23:21.134Z</time></trkpt><trkpt lat="45.756041" lon="8.9618388"><ele>398.0</ele><time>2026-04-07T14:23:25.332Z</time></trkpt><trkpt lat="45.7561199" lon="8.9617547"><ele>398.0</ele><time>2026-04-07T14:23:31.638Z</time></trkpt><trkpt lat="45.7561884" lon="8.9617036"><ele>398.0</ele><time>2026-04-07T14:23:33.614Z</time></trkpt><trkpt lat="45.7561846" lon="8.9616016"><ele>397.99999999999994</ele><time>2026-04-07T14:23:40.918Z</time></trkpt><trkpt lat="45.7562776" lon="8.9615934"><ele>398.0</ele><time>2026-04-07T14:23:42.191Z</time></trkpt><trkpt lat="45.7563353" lon="8.9615396"><ele>398.57142857142856</ele><time>2026-04-07T14:23:49.192Z</time></trkpt><trkpt lat="45.7563864" lon="8.9614788"><ele>399.1428571428571</ele><time>2026-04-07T14:23:55.137Z</time></trkpt><trkpt lat="45.7564337" lon="8.9614164"><ele>399.71428571428567</ele><time>2026-04-07T14:23:59.148Z</time></trkpt><trkpt lat="45.7564879" lon="8.9613472"><ele>400.2857142857143</ele><time>2026-04-07T14:24:04.178Z</time></trkpt><trkpt lat="45.7565514" lon="8.9612882"><ele>400.8571428571429</ele><time>2026-04-07T14:24:08.199Z</time></trkpt><trkpt lat="45.7566114" lon="8.9612395"><ele>401.4285714285714</ele><time>2026-04-07T14:24:13.509Z</time></trkpt><trkpt lat="45.7566627" lon="8.9611651"><ele>402.0</ele><time>2026-04-07T14:24:21.812Z</time></trkpt><trkpt lat="45.7567492" lon="8.9610659"><ele>402.0</ele><time>2026-04-07T14:24:25.955Z</time></trkpt><trkpt lat="45.7568078" lon="8.9610081"><ele>402.0</ele><time>2026-04-07T14:24:29.059Z</time></trkpt><trkpt lat="45.7569423" lon="8.9608781"><ele>402.0</ele><time>2026-04-07T14:24:37.186Z</time></trkpt><trkpt lat="45.7569864" lon="8.9607988"><ele>402.0</ele><time>2026-04-07T14:24:44.077Z</time></trkpt><trkpt lat="45.7570976" lon="8.9606726"><ele>402.0</ele><time>2026-04-07T14:24:50.235Z</time></trkpt><trkpt lat="45.7571584" lon="8.9606207"><ele>402.5</ele><time>2026-04-07T14:24:57.248Z</time></trkpt><trkpt lat="45.7572673" lon="8.9604837"><ele>403.0</ele><time>2026-04-07T14:25:06.095Z</time></trkpt><trkpt lat="45.7573323" lon="8.9604144"><ele>403.5</ele><time>2026-04-07T14:25:11.193Z</time></trkpt><trkpt lat="45.7573852" lon="8.9603435"><ele>404.0</ele><time>2026-04-07T14:25:15.225Z</time></trkpt><trkpt lat="45.7574361" lon="8.9602779"><ele>404.5</ele><time>2026-04-07T14:25:19.128Z</time></trkpt><trkpt lat="45.7574887" lon="8.9602133"><ele>405.0</ele><time>2026-04-07T14:25:24.131Z</time></trkpt><trkpt lat="45.7575421" lon="8.9601297"><ele>404.99999999999994</ele><time>2026-04-07T14:25:30.306Z</time></trkpt><trkpt lat="45.7575913" lon="8.9600651"><ele>405.0</ele><time>2026-04-07T14:25:33.354Z</time></trkpt><trkpt lat="45.7576428" lon="8.9600115"><ele>405.0</ele><time>2026-04-07T14:25:35.75Z</time></trkpt><trkpt lat="45.7576873" lon="8.9599414"><ele>405.0</ele><time>2026-04-07T14:25:41.851Z</time></trkpt><trkpt lat="45.7577344" lon="8.9598759"><ele>405.0</ele><time>2026-04-07T14:25:48.975Z</time></trkpt><trkpt lat="45.7577925" lon="8.9598015"><ele>404.99999999999994</ele><time>2026-04-07T14:25:52.058Z</time></trkpt><trkpt lat="45.7578529" lon="8.9597576"><ele>405.0</ele><time>2026-04-07T14:25:59.222Z</time></trkpt><trkpt lat="45.7579747" lon="8.9596578"><ele>405.5</ele><time>2026-04-07T14:26:09.217Z</time></trkpt><trkpt lat="45.7580359" lon="8.9596052"><ele>406.0</ele><time>2026-04-07T14:26:14.21Z</time></trkpt><trkpt lat="45.7580826" lon="8.9595317"><ele>406.5</ele><time>2026-04-07T14:26:21.127Z</time></trkpt><trkpt lat="45.7581764" lon="8.9593448"><ele>407.0</ele><time>2026-04-07T14:26:31.196Z</time></trkpt><trkpt lat="45.7582234" lon="8.959281"><ele>407.5</ele><time>2026-04-07T14:26:36.128Z</time></trkpt><trkpt lat="45.7582733" lon="8.9592014"><ele>408.0</ele><time>2026-04-07T14:26:40.129Z</time></trkpt><trkpt lat="45.7583289" lon="8.9591365"><ele>408.0</ele><time>2026-04-07T14:26:43.017Z</time></trkpt><trkpt lat="45.7583838" lon="8.9590649"><ele>408.0</ele><time>2026-04-07T14:26:46.215Z</time></trkpt><trkpt lat="45.7584226" lon="8.9589791"><ele>408.0</ele><time>2026-04-07T14:26:51.209Z</time></trkpt><trkpt lat="45.75847" lon="8.9589058"><ele>408.0</ele><time>2026-04-07T14:26:57.199Z</time></trkpt><trkpt lat="45.7585846" lon="8.9588517"><ele>408.0</ele><time>2026-04-07T14:27:08.198Z</time></trkpt><trkpt lat="45.7586484" lon="8.9587968"><ele>408.0</ele><time>2026-04-07T14:27:10.146Z</time></trkpt><trkpt lat="45.7587021" lon="8.9587385"><ele>407.8333333333333</ele><time>2026-04-07T14:27:15.187Z</time></trkpt><trkpt lat="45.7587534" lon="8.9586643"><ele>407.66666666666663</ele><time>2026-04-07T14:27:19.197Z</time></trkpt><trkpt lat="45.7588053" lon="8.9586015"><ele>407.5</ele><time>2026-04-07T14:27:23.207Z</time></trkpt><trkpt lat="45.7588597" lon="8.9585439"><ele>407.3333333333333</ele><time>2026-04-07T14:27:26.055Z</time></trkpt><trkpt lat="45.7589062" lon="8.9584677"><ele>407.16666666666663</ele><time>2026-04-07T14:27:30.15Z</time></trkpt><trkpt lat="45.758999" lon="8.9583735"><ele>407.0</ele><time>2026-04-07T14:27:34.213Z</time></trkpt><trkpt lat="45.7590527" lon="8.9583156"><ele>407.0</ele><time>2026-04-07T14:27:38.217Z</time></trkpt><trkpt lat="45.7591804" lon="8.9582472"><ele>407.0</ele><time>2026-04-07T14:27:47.056Z</time></trkpt><trkpt lat="45.7592273" lon="8.9581787"><ele>407.0</ele><time>2026-04-07T14:27:55.195Z</time></trkpt><trkpt lat="45.7592454" lon="8.9580773"><ele>407.0</ele><time>2026-04-07T14:28:03.234Z</time></trkpt><trkpt lat="45.7592428" lon="8.9579784"><ele>407.0</ele><time>2026-04-07T14:28:08.238Z</time></trkpt><trkpt lat="45.759221" lon="8.9577378"><ele>406.99999999999994</ele><time>2026-04-07T14:28:19.128Z</time></trkpt><trkpt lat="45.759205" lon="8.9576406"><ele>407.0</ele><time>2026-04-07T14:28:25.193Z</time></trkpt><trkpt lat="45.7592184" lon="8.9575448"><ele>407.0</ele><time>2026-04-07T14:28:31.151Z</time></trkpt><trkpt lat="45.7592982" lon="8.9573294"><ele>407.0</ele><time>2026-04-07T14:28:42.138Z</time></trkpt><trkpt lat="45.7593534" lon="8.9572725"><ele>406.99999999999994</ele><time>2026-04-07T14:28:46.229Z</time></trkpt><trkpt lat="45.7594158" lon="8.9572169"><ele>407.0</ele><time>2026-04-07T14:28:52.233Z</time></trkpt><trkpt lat="45.7594816" lon="8.9571732"><ele>406.99999999999994</ele><time>2026-04-07T14:28:56.13Z</time></trkpt><trkpt lat="45.7595346" lon="8.9571114"><ele>407.0</ele><time>2026-04-07T14:29:05.18Z</time></trkpt><trkpt lat="45.7596435" lon="8.9570141"><ele>407.0</ele><time>2026-04-07T14:29:15.148Z</time></trkpt><trkpt lat="45.7596991" lon="8.9569488"><ele>407.0</ele><time>2026-04-07T14:29:22.252Z</time></trkpt><trkpt lat="45.7597416" lon="8.9568745"><ele>406.99999999999994</ele><time>2026-04-07T14:29:29.242Z</time></trkpt><trkpt lat="45.7597649" lon="8.9567827"><ele>407.0</ele><time>2026-04-07T14:29:34.19Z</time></trkpt><trkpt lat="45.7597641" lon="8.9566714"><ele>407.00000000000006</ele><time>2026-04-07T14:29:39.209Z</time></trkpt><trkpt lat="45.7597437" lon="8.9565803"><ele>407.0</ele><time>2026-04-07T14:29:44.136Z</time></trkpt><trkpt lat="45.75973" lon="8.9564881"><ele>407.0</ele><time>2026-04-07T14:29:50.209Z</time></trkpt><trkpt lat="45.7597287" lon="8.9563863"><ele>407.0</ele><time>2026-04-07T14:29:57.198Z</time></trkpt><trkpt lat="45.75972" lon="8.9562812"><ele>407.0</ele><time>2026-04-07T14:30:01.208Z</time></trkpt><trkpt lat="45.759705" lon="8.9561934"><ele>407.00000000000006</ele><time>2026-04-07T14:30:05.218Z</time></trkpt><trkpt lat="45.7597097" lon="8.9560945"><ele>407.0</ele><time>2026-04-07T14:30:11.176Z</time></trkpt><trkpt lat="45.7597155" lon="8.9559864"><ele>406.99999999999994</ele><time>2026-04-07T14:30:15.977Z</time></trkpt><trkpt lat="45.7597058" lon="8.9558895"><ele>407.0</ele><time>2026-04-07T14:30:21.144Z</time></trkpt><trkpt lat="45.7596727" lon="8.9558054"><ele>407.0</ele><time>2026-04-07T14:30:24.173Z</time></trkpt><trkpt lat="45.7596315" lon="8.9557175"><ele>407.0</ele><time>2026-04-07T14:30:27.217Z</time></trkpt><trkpt lat="45.759595" lon="8.9556296"><ele>406.99999999999994</ele><time>2026-04-07T14:30:30.249Z</time></trkpt><trkpt lat="45.7595492" lon="8.9555414"><ele>407.0</ele><time>2026-04-07T14:30:35.133Z</time></trkpt><trkpt lat="45.7595206" lon="8.9554161"><ele>406.49999999999994</ele><time>2026-04-07T14:30:36.117Z</time></trkpt><trkpt lat="45.759499" lon="8.9552986"><ele>406.0</ele><time>2026-04-07T14:30:39.236Z</time></trkpt><trkpt lat="45.7594778" lon="8.9552007"><ele>405.5</ele><time>2026-04-07T14:30:42.252Z</time></trkpt><trkpt lat="45.7594415" lon="8.955105"><ele>405.0</ele><time>2026-04-07T14:30:45.205Z</time></trkpt><trkpt lat="45.7594183" lon="8.9549952"><ele>404.49999999999994</ele><time>2026-04-07T14:30:49.216Z</time></trkpt><trkpt lat="45.7593936" lon="8.9548953"><ele>404.0</ele><time>2026-04-07T14:30:53.127Z</time></trkpt><trkpt lat="45.7593749" lon="8.9548034"><ele>404.0</ele><time>2026-04-07T14:30:57.151Z</time></trkpt><trkpt lat="45.7593727" lon="8.9546996"><ele>404.0</ele><time>2026-04-07T14:31:02.193Z</time></trkpt><trkpt lat="45.7593839" lon="8.954609"><ele>404.0</ele><time>2026-04-07T14:31:06.213Z</time></trkpt><trkpt lat="45.7593818" lon="8.9545144"><ele>404.0</ele><time>2026-04-07T14:31:10.182Z</time></trkpt><trkpt lat="45.759382" lon="8.9544149"><ele>404.0</ele><time>2026-04-07T14:31:17.172Z</time></trkpt><trkpt lat="45.7593692" lon="8.9543172"><ele>404.0</ele><time>2026-04-07T14:31:24.053Z</time></trkpt><trkpt lat="45.7593449" lon="8.9542314"><ele>404.0</ele><time>2026-04-07T14:31:31.191Z</time></trkpt><trkpt lat="45.7593038" lon="8.9541554"><ele>405.8333333333333</ele><time>2026-04-07T14:31:37.223Z</time></trkpt><trkpt lat="45.7592279" lon="8.9540528"><ele>407.66666666666663</ele><time>2026-04-07T14:31:45.129Z</time></trkpt><trkpt lat="45.7591855" lon="8.9539761"><ele>409.5</ele><time>2026-04-07T14:31:47.191Z</time></trkpt><trkpt lat="45.7591735" lon="8.9538725"><ele>411.33333333333337</ele><time>2026-04-07T14:31:54.096Z</time></trkpt><trkpt lat="45.7591632" lon="8.9537782"><ele>413.1666666666667</ele><time>2026-04-07T14:32:01.169Z</time></trkpt><trkpt lat="45.7590976" lon="8.9536351"><ele>415.0</ele><time>2026-04-07T14:32:06.21Z</time></trkpt><trkpt lat="45.7590695" lon="8.9535505"><ele>415.00000000000006</ele><time>2026-04-07T14:32:11.137Z</time></trkpt><trkpt lat="45.7590595" lon="8.9534498"><ele>415.0</ele><time>2026-04-07T14:32:18.152Z</time></trkpt><trkpt lat="45.7590199" lon="8.9532684"><ele>415.0</ele><time>2026-04-07T14:32:25.213Z</time></trkpt><trkpt lat="45.759023" lon="8.953173"><ele>415.0</ele><time>2026-04-07T14:32:30.157Z</time></trkpt><trkpt lat="45.7590395" lon="8.9530647"><ele>415.00000000000006</ele><time>2026-04-07T14:32:36.23Z</time></trkpt><trkpt lat="45.7590633" lon="8.9529638"><ele>415.0</ele><time>2026-04-07T14:32:39.99Z</time></trkpt><trkpt lat="45.759107" lon="8.9528931"><ele>415.50000000000006</ele><time>2026-04-07T14:32:45.113Z</time></trkpt><trkpt lat="45.7591562" lon="8.9528304"><ele>416.0</ele><time>2026-04-07T14:32:52.235Z</time></trkpt><trkpt lat="45.7592628" lon="8.9527518"><ele>416.5</ele><time>2026-04-07T14:32:57.198Z</time></trkpt><trkpt lat="45.7593176" lon="8.9526883"><ele>417.0</ele><time>2026-04-07T14:33:01.208Z</time></trkpt><trkpt lat="45.759373" lon="8.9526083"><ele>417.50000000000006</ele><time>2026-04-07T14:33:09.229Z</time></trkpt><trkpt lat="45.7594215" lon="8.952541"><ele>418.0</ele><time>2026-04-07T14:33:15.187Z</time></trkpt><trkpt lat="45.7594539" lon="8.9524629"><ele>418.79999999999995</ele><time>2026-04-07T14:33:22.176Z</time></trkpt><trkpt lat="45.7594537" lon="8.9522974"><ele>419.6</ele><time>2026-04-07T14:33:27.217Z</time></trkpt><trkpt lat="45.7594474" lon="8.9522045"><ele>420.4</ele><time>2026-04-07T14:33:32.144Z</time></trkpt><trkpt lat="45.7594621" lon="8.9519687"><ele>421.20000000000005</ele><time>2026-04-07T14:33:43.218Z</time></trkpt><trkpt lat="45.7594615" lon="8.9518703"><ele>422.0</ele><time>2026-04-07T14:33:46.87Z</time></trkpt><trkpt lat="45.7594654" lon="8.9517734"><ele>421.66666666666663</ele><time>2026-04-07T14:33:51.949Z</time></trkpt><trkpt lat="45.7594783" lon="8.9516713"><ele>421.3333333333333</ele><time>2026-04-07T14:33:56.03Z</time></trkpt><trkpt lat="45.7595109" lon="8.9515781"><ele>421.0</ele><time>2026-04-07T14:34:00.216Z</time></trkpt><trkpt lat="45.7595532" lon="8.9514967"><ele>420.66666666666663</ele><time>2026-04-07T14:34:04.108Z</time></trkpt><trkpt lat="45.7596654" lon="8.9513662"><ele>420.3333333333333</ele><time>2026-04-07T14:34:10.172Z</time></trkpt><trkpt lat="45.7597025" lon="8.9512917"><ele>420.0</ele><time>2026-04-07T14:34:14.25Z</time></trkpt><trkpt lat="45.759767" lon="8.9511544"><ele>420.0</ele><time>2026-04-07T14:34:19.236Z</time></trkpt><trkpt lat="45.7597934" lon="8.951063"><ele>420.0</ele><time>2026-04-07T14:34:24.163Z</time></trkpt><trkpt lat="45.7598263" lon="8.9509002"><ele>420.0</ele><time>2026-04-07T14:34:28.174Z</time></trkpt><trkpt lat="45.7598464" lon="8.9507994"><ele>420.0</ele><time>2026-04-07T14:34:32.038Z</time></trkpt><trkpt lat="45.7598727" lon="8.9507108"><ele>420.0</ele><time>2026-04-07T14:34:36.736Z</time></trkpt><trkpt lat="45.7599528" lon="8.9505905"><ele>420.0</ele><time>2026-04-07T14:34:44.214Z</time></trkpt><trkpt lat="45.7599851" lon="8.9504994"><ele>419.8333333333333</ele><time>2026-04-07T14:34:51.204Z</time></trkpt><trkpt lat="45.7599971" lon="8.9503878"><ele>419.66666666666663</ele><time>2026-04-07T14:34:56.09Z</time></trkpt><trkpt lat="45.7600127" lon="8.9502974"><ele>419.5</ele><time>2026-04-07T14:34:59.116Z</time></trkpt><trkpt lat="45.760041" lon="8.9502058"><ele>419.3333333333333</ele><time>2026-04-07T14:35:04.166Z</time></trkpt><trkpt lat="45.7600558" lon="8.9501065"><ele>419.16666666666663</ele><time>2026-04-07T14:35:11.14Z</time></trkpt><trkpt lat="45.760141" lon="8.9499548"><ele>419.0</ele><time>2026-04-07T14:35:20.192Z</time></trkpt><trkpt lat="45.760162" lon="8.9498621"><ele>419.8333333333333</ele><time>2026-04-07T14:35:31.191Z</time></trkpt><trkpt lat="45.7601221" lon="8.9497836"><ele>420.66666666666663</ele><time>2026-04-07T14:35:39.212Z</time></trkpt><trkpt lat="45.7600691" lon="8.9497176"><ele>421.5</ele><time>2026-04-07T14:35:47.097Z</time></trkpt><trkpt lat="45.7599519" lon="8.9495859"><ele>422.33333333333337</ele><time>2026-04-07T14:35:54.252Z</time></trkpt><trkpt lat="45.7599017" lon="8.949512"><ele>423.1666666666667</ele><time>2026-04-07T14:35:58.376Z</time></trkpt><trkpt lat="45.7598593" lon="8.9494415"><ele>424.0</ele><time>2026-04-07T14:36:04.474Z</time></trkpt><trkpt lat="45.7598057" lon="8.9493803"><ele>424.0</ele><time>2026-04-07T14:36:08.498Z</time></trkpt><trkpt lat="45.7597402" lon="8.9493072"><ele>424.0</ele><time>2026-04-07T14:36:10.55Z</time></trkpt><trkpt lat="45.7597117" lon="8.949219"><ele>424.0</ele><time>2026-04-07T14:36:18.676Z</time></trkpt><trkpt lat="45.7596285" lon="8.9491282"><ele>424.0</ele><time>2026-04-07T14:36:29.571Z</time></trkpt><trkpt lat="45.7595727" lon="8.9490831"><ele>424.0</ele><time>2026-04-07T14:36:30.936Z</time></trkpt><trkpt lat="45.7594834" lon="8.9489391"><ele>424.0</ele><time>2026-04-07T14:36:37.038Z</time></trkpt><trkpt lat="45.7594373" lon="8.9488693"><ele>424.0</ele><time>2026-04-07T14:36:41.053Z</time></trkpt><trkpt lat="45.7593433" lon="8.9486801"><ele>424.0</ele><time>2026-04-07T14:36:49.193Z</time></trkpt><trkpt lat="45.7593027" lon="8.9485962"><ele>424.0</ele><time>2026-04-07T14:36:55.177Z</time></trkpt><trkpt lat="45.7592723" lon="8.9484126"><ele>424.0</ele><time>2026-04-07T14:37:01.356Z</time></trkpt><trkpt lat="45.7592846" lon="8.9483118"><ele>423.6666666666667</ele><time>2026-04-07T14:37:08.352Z</time></trkpt><trkpt lat="45.7592848" lon="8.9481366"><ele>423.33333333333337</ele><time>2026-04-07T14:37:17.532Z</time></trkpt><trkpt lat="45.7592836" lon="8.9480161"><ele>423.0</ele><time>2026-04-07T14:37:19.555Z</time></trkpt><trkpt lat="45.7592821" lon="8.9479169"><ele>422.66666666666663</ele><time>2026-04-07T14:37:23.478Z</time></trkpt><trkpt lat="45.7592808" lon="8.9478112"><ele>422.3333333333333</ele><time>2026-04-07T14:37:26.616Z</time></trkpt><trkpt lat="45.7592823" lon="8.9477195"><ele>422.0</ele><time>2026-04-07T14:37:29.638Z</time></trkpt><trkpt lat="45.7592798" lon="8.947627"><ele>421.8571428571429</ele><time>2026-04-07T14:37:32.617Z</time></trkpt><trkpt lat="45.7592683" lon="8.9475285"><ele>421.7142857142857</ele><time>2026-04-07T14:37:35.634Z</time></trkpt><trkpt lat="45.7592544" lon="8.9474357"><ele>421.57142857142856</ele><time>2026-04-07T14:37:38.67Z</time></trkpt><trkpt lat="45.7592452" lon="8.9473424"><ele>421.42857142857144</ele><time>2026-04-07T14:37:41.73Z</time></trkpt><trkpt lat="45.7592344" lon="8.9472286"><ele>421.2857142857143</ele><time>2026-04-07T14:37:45.873Z</time></trkpt><trkpt lat="45.7592067" lon="8.9471431"><ele>421.14285714285717</ele><time>2026-04-07T14:37:48.897Z</time></trkpt><trkpt lat="45.7591864" lon="8.9470448"><ele>421.0</ele><time>2026-04-07T14:37:51.894Z</time></trkpt><trkpt lat="45.7591825" lon="8.9469472"><ele>421.00000000000006</ele><time>2026-04-07T14:37:54.911Z</time></trkpt><trkpt lat="45.7591728" lon="8.9468495"><ele>421.0</ele><time>2026-04-07T14:37:57.957Z</time></trkpt><trkpt lat="45.7591649" lon="8.9467476"><ele>421.0</ele><time>2026-04-07T14:38:01.992Z</time></trkpt><trkpt lat="45.7591603" lon="8.9466473"><ele>421.0</ele><time>2026-04-07T14:38:06.098Z</time></trkpt><trkpt lat="45.7591572" lon="8.9465373"><ele>421.0</ele><time>2026-04-07T14:38:10.149Z</time></trkpt><trkpt lat="45.7591687" lon="8.9464422"><ele>421.00000000000006</ele><time>2026-04-07T14:38:14.217Z</time></trkpt><trkpt lat="45.7592014" lon="8.9463592"><ele>421.0</ele><time>2026-04-07T14:38:19.161Z</time></trkpt><trkpt lat="45.7592334" lon="8.946276"><ele>420.6666666666667</ele><time>2026-04-07T14:38:24.978Z</time></trkpt><trkpt lat="45.7592664" lon="8.9461985"><ele>420.33333333333337</ele><time>2026-04-07T14:38:30.176Z</time></trkpt><trkpt lat="45.7592879" lon="8.9461103"><ele>420.0</ele><time>2026-04-07T14:38:36.297Z</time></trkpt><trkpt lat="45.7593052" lon="8.9460092"><ele>419.66666666666663</ele><time>2026-04-07T14:38:41.352Z</time></trkpt><trkpt lat="45.7593151" lon="8.9458983"><ele>419.3333333333333</ele><time>2026-04-07T14:38:43.397Z</time></trkpt><trkpt lat="45.7593096" lon="8.9457367"><ele>419.0</ele><time>2026-04-07T14:38:53.569Z</time></trkpt><trkpt lat="45.7593052" lon="8.9456291"><ele>418.8333333333333</ele><time>2026-04-07T14:38:55.612Z</time></trkpt><trkpt lat="45.7593178" lon="8.9455253"><ele>418.66666666666663</ele><time>2026-04-07T14:39:02.735Z</time></trkpt><trkpt lat="45.759349" lon="8.945413"><ele>418.5</ele><time>2026-04-07T14:39:07.872Z</time></trkpt><trkpt lat="45.7593742" lon="8.9453242"><ele>418.33333333333337</ele><time>2026-04-07T14:39:10.951Z</time></trkpt><trkpt lat="45.7594842" lon="8.9451937"><ele>418.1666666666667</ele><time>2026-04-07T14:39:18.168Z</time></trkpt><trkpt lat="45.7595486" lon="8.9451634"><ele>418.0</ele><time>2026-04-07T14:39:23.209Z</time></trkpt><trkpt lat="45.7595052" lon="8.9450974"><ele>418.00000000000006</ele><time>2026-04-07T14:39:50.637Z</time></trkpt><trkpt lat="45.7593982" lon="8.9451223"><ele>418.0</ele><time>2026-04-07T14:40:03.891Z</time></trkpt><trkpt lat="45.7593275" lon="8.9451485"><ele>418.0</ele><time>2026-04-07T14:40:06.869Z</time></trkpt><trkpt lat="45.7592664" lon="8.9451791"><ele>418.0</ele><time>2026-04-07T14:40:12.035Z</time></trkpt><trkpt lat="45.7592031" lon="8.9452186"><ele>418.00000000000006</ele><time>2026-04-07T14:40:16.093Z</time></trkpt><trkpt lat="45.7591284" lon="8.9452532"><ele>418.0</ele><time>2026-04-07T14:40:21.216Z</time></trkpt><trkpt lat="45.7590601" lon="8.9452703"><ele>418.0</ele><time>2026-04-07T14:40:26.226Z</time></trkpt><trkpt lat="45.7589855" lon="8.9452768"><ele>418.0</ele><time>2026-04-07T14:40:29.335Z</time></trkpt><trkpt lat="45.7589191" lon="8.9453006"><ele>418.0</ele><time>2026-04-07T14:40:33.777Z</time></trkpt><trkpt lat="45.7588398" lon="8.9453444"><ele>418.0</ele><time>2026-04-07T14:40:36.855Z</time></trkpt><trkpt lat="45.7587689" lon="8.945358"><ele>418.0</ele><time>2026-04-07T14:40:41.929Z</time></trkpt><trkpt lat="45.7587081" lon="8.9453938"><ele>418.0</ele><time>2026-04-07T14:40:48.03Z</time></trkpt><trkpt lat="45.7586409" lon="8.945409"><ele>418.0</ele><time>2026-04-07T14:40:52.176Z</time></trkpt><trkpt lat="45.7585601" lon="8.9454414"><ele>418.0</ele><time>2026-04-07T14:40:56.232Z</time></trkpt><trkpt lat="45.7584975" lon="8.9454788"><ele>418.0</ele><time>2026-04-07T14:41:00.14Z</time></trkpt><trkpt lat="45.7584323" lon="8.9454951"><ele>418.0</ele><time>2026-04-07T14:41:06.213Z</time></trkpt><trkpt lat="45.7583718" lon="8.945525"><ele>418.0</ele><time>2026-04-07T14:41:10.114Z</time></trkpt><trkpt lat="45.7583037" lon="8.9455586"><ele>418.0</ele><time>2026-04-07T14:41:16.197Z</time></trkpt><trkpt lat="45.7582391" lon="8.9455921"><ele>418.0</ele><time>2026-04-07T14:41:21.223Z</time></trkpt><trkpt lat="45.7581805" lon="8.9456295"><ele>418.0</ele><time>2026-04-07T14:41:24.217Z</time></trkpt><trkpt lat="45.7581064" lon="8.9456672"><ele>418.0</ele><time>2026-04-07T14:41:27.18Z</time></trkpt><trkpt lat="45.758043" lon="8.9456792"><ele>418.0</ele><time>2026-04-07T14:41:30.248Z</time></trkpt><trkpt lat="45.75797" lon="8.9457011"><ele>418.0</ele><time>2026-04-07T14:41:34.169Z</time></trkpt><trkpt lat="45.757906" lon="8.9457089"><ele>418.0</ele><time>2026-04-07T14:41:38.18Z</time></trkpt><trkpt lat="45.7578314" lon="8.9457256"><ele>418.0</ele><time>2026-04-07T14:41:44.137Z</time></trkpt><trkpt lat="45.7577621" lon="8.9457235"><ele>418.0</ele><time>2026-04-07T14:41:48.147Z</time></trkpt><trkpt lat="45.7576841" lon="8.9457472"><ele>418.0</ele><time>2026-04-07T14:41:53.138Z</time></trkpt><trkpt lat="45.7576253" lon="8.9457888"><ele>417.85714285714283</ele><time>2026-04-07T14:41:57.191Z</time></trkpt><trkpt lat="45.7575673" lon="8.9458486"><ele>417.71428571428567</ele><time>2026-04-07T14:42:03.157Z</time></trkpt><trkpt lat="45.7575167" lon="8.9459124"><ele>417.57142857142856</ele><time>2026-04-07T14:42:07.168Z</time></trkpt><trkpt lat="45.7574592" lon="8.9459756"><ele>417.42857142857144</ele><time>2026-04-07T14:42:10.974Z</time></trkpt><trkpt lat="45.757412" lon="8.9460517"><ele>417.2857142857143</ele><time>2026-04-07T14:42:15.151Z</time></trkpt><trkpt lat="45.7573678" lon="8.9461387"><ele>417.14285714285717</ele><time>2026-04-07T14:42:21.145Z</time></trkpt><trkpt lat="45.7573281" lon="8.9462223"><ele>417.0</ele><time>2026-04-07T14:42:30.196Z</time></trkpt><trkpt lat="45.7572876" lon="8.9463024"><ele>416.8571428571429</ele><time>2026-04-07T14:42:34.207Z</time></trkpt><trkpt lat="45.7572475" lon="8.9463787"><ele>416.71428571428567</ele><time>2026-04-07T14:42:41.068Z</time></trkpt><trkpt lat="45.7571936" lon="8.94645"><ele>416.57142857142856</ele><time>2026-04-07T14:42:45.177Z</time></trkpt><trkpt lat="45.7571402" lon="8.9465163"><ele>416.42857142857144</ele><time>2026-04-07T14:42:50.292Z</time></trkpt><trkpt lat="45.7571052" lon="8.9466011"><ele>416.28571428571433</ele><time>2026-04-07T14:42:58.154Z</time></trkpt><trkpt lat="45.7570964" lon="8.9467014"><ele>416.1428571428571</ele><time>2026-04-07T14:43:04.114Z</time></trkpt><trkpt lat="45.7570807" lon="8.9468154"><ele>416.0</ele><time>2026-04-07T14:43:08.212Z</time></trkpt><trkpt lat="45.7570627" lon="8.9469076"><ele>416.16666666666663</ele><time>2026-04-07T14:43:11.854Z</time></trkpt><trkpt lat="45.7570479" lon="8.947024"><ele>416.3333333333333</ele><time>2026-04-07T14:43:17.178Z</time></trkpt><trkpt lat="45.7570258" lon="8.9471284"><ele>416.5</ele><time>2026-04-07T14:43:21.074Z</time></trkpt><trkpt lat="45.7569763" lon="8.9472119"><ele>416.66666666666663</ele><time>2026-04-07T14:43:26.213Z</time></trkpt><trkpt lat="45.7569188" lon="8.947272"><ele>416.8333333333333</ele><time>2026-04-07T14:43:30.128Z</time></trkpt><trkpt lat="45.7568419" lon="8.9474228"><ele>417.0</ele><time>2026-04-07T14:43:35.05Z</time></trkpt><trkpt lat="45.7568015" lon="8.9474924"><ele>417.2857142857143</ele><time>2026-04-07T14:43:38.115Z</time></trkpt><trkpt lat="45.7567546" lon="8.9475597"><ele>417.57142857142856</ele><time>2026-04-07T14:43:43.232Z</time></trkpt><trkpt lat="45.7567149" lon="8.947641"><ele>417.85714285714283</ele><time>2026-04-07T14:43:47.199Z</time></trkpt><trkpt lat="45.756709" lon="8.9477366"><ele>418.1428571428571</ele><time>2026-04-07T14:43:51.818Z</time></trkpt><trkpt lat="45.7566548" lon="8.9477912"><ele>418.42857142857144</ele><time>2026-04-07T14:43:56.136Z</time></trkpt><trkpt lat="45.7566238" lon="8.9478709"><ele>418.71428571428567</ele><time>2026-04-07T14:44:00.146Z</time></trkpt><trkpt lat="45.7566197" lon="8.9479668"><ele>419.0</ele><time>2026-04-07T14:44:06.218Z</time></trkpt><trkpt lat="45.7566452" lon="8.948053"><ele>418.99999999999994</ele><time>2026-04-07T14:44:12.13Z</time></trkpt><trkpt lat="45.7566402" lon="8.9481651"><ele>419.0</ele><time>2026-04-07T14:44:19.336Z</time></trkpt><trkpt lat="45.7566442" lon="8.9482715"><ele>419.0</ele><time>2026-04-07T14:44:24.534Z</time></trkpt><trkpt lat="45.756646" lon="8.9483653"><ele>419.0</ele><time>2026-04-07T14:44:28.635Z</time></trkpt><trkpt lat="45.7566586" lon="8.9484581"><ele>419.0</ele><time>2026-04-07T14:44:32.77Z</time></trkpt><trkpt lat="45.7566616" lon="8.9485581"><ele>418.99999999999994</ele><time>2026-04-07T14:44:38.016Z</time></trkpt><trkpt lat="45.7566546" lon="8.9486612"><ele>419.0</ele><time>2026-04-07T14:44:43.273Z</time></trkpt><trkpt lat="45.7566472" lon="8.9487586"><ele>418.57142857142856</ele><time>2026-04-07T14:44:47.451Z</time></trkpt><trkpt lat="45.7566703" lon="8.9488505"><ele>418.1428571428571</ele><time>2026-04-07T14:44:52.759Z</time></trkpt><trkpt lat="45.7566763" lon="8.9489411"><ele>417.71428571428567</ele><time>2026-04-07T14:44:56.916Z</time></trkpt><trkpt lat="45.7566905" lon="8.9490371"><ele>417.2857142857143</ele><time>2026-04-07T14:45:01.095Z</time></trkpt><trkpt lat="45.7566911" lon="8.9491376"><ele>416.8571428571429</ele><time>2026-04-07T14:45:06.144Z</time></trkpt><trkpt lat="45.7566931" lon="8.9492307"><ele>416.4285714285714</ele><time>2026-04-07T14:45:11.184Z</time></trkpt><trkpt lat="45.7566963" lon="8.949321"><ele>416.0</ele><time>2026-04-07T14:45:15.194Z</time></trkpt><trkpt lat="45.756712" lon="8.9494184"><ele>415.7142857142857</ele><time>2026-04-07T14:45:19.111Z</time></trkpt><trkpt lat="45.7566966" lon="8.9495132"><ele>415.42857142857144</ele><time>2026-04-07T14:45:24.257Z</time></trkpt><trkpt lat="45.756669" lon="8.9495977"><ele>415.14285714285717</ele><time>2026-04-07T14:45:32.183Z</time></trkpt><trkpt lat="45.7566467" lon="8.9496839"><ele>414.8571428571429</ele><time>2026-04-07T14:45:37.411Z</time></trkpt><trkpt lat="45.7566055" lon="8.9497615"><ele>414.57142857142856</ele><time>2026-04-07T14:45:41.698Z</time></trkpt><trkpt lat="45.7565542" lon="8.9498191"><ele>414.28571428571433</ele><time>2026-04-07T14:45:43.799Z</time></trkpt><trkpt lat="45.7565081" lon="8.9498836"><ele>414.0</ele><time>2026-04-07T14:45:45.717Z</time></trkpt><trkpt lat="45.756457" lon="8.949948"><ele>414.0</ele><time>2026-04-07T14:45:54.098Z</time></trkpt><trkpt lat="45.756384" lon="8.9500128"><ele>414.0</ele><time>2026-04-07T14:45:55.137Z</time></trkpt><trkpt lat="45.7563232" lon="8.950062"><ele>414.0</ele><time>2026-04-07T14:46:01.132Z</time></trkpt><trkpt lat="45.7562668" lon="8.9501392"><ele>414.0</ele><time>2026-04-07T14:46:08.129Z</time></trkpt><trkpt lat="45.7561298" lon="8.9502291"><ele>414.0</ele><time>2026-04-07T14:46:17.181Z</time></trkpt><trkpt lat="45.7560893" lon="8.9503007"><ele>414.0</ele><time>2026-04-07T14:46:22.091Z</time></trkpt><trkpt lat="45.7560327" lon="8.950366"><ele>414.14285714285717</ele><time>2026-04-07T14:46:26.196Z</time></trkpt><trkpt lat="45.7559714" lon="8.9504281"><ele>414.2857142857143</ele><time>2026-04-07T14:46:33.221Z</time></trkpt><trkpt lat="45.7559247" lon="8.9505025"><ele>414.42857142857144</ele><time>2026-04-07T14:46:38.131Z</time></trkpt><trkpt lat="45.7558728" lon="8.9505608"><ele>414.57142857142856</ele><time>2026-04-07T14:46:42.158Z</time></trkpt><trkpt lat="45.7558154" lon="8.950615"><ele>414.7142857142857</ele><time>2026-04-07T14:46:47.201Z</time></trkpt><trkpt lat="45.755739" lon="8.9506527"><ele>414.8571428571429</ele><time>2026-04-07T14:46:53.171Z</time></trkpt><trkpt lat="45.7556755" lon="8.9507089"><ele>415.0</ele><time>2026-04-07T14:46:58.2Z</time></trkpt><trkpt lat="45.7556312" lon="8.9507743"><ele>415.0</ele><time>2026-04-07T14:47:03.21Z</time></trkpt><trkpt lat="45.7555675" lon="8.9508343"><ele>415.0</ele><time>2026-04-07T14:47:09.128Z</time></trkpt><trkpt lat="45.7555126" lon="8.9508889"><ele>415.0</ele><time>2026-04-07T14:47:15.158Z</time></trkpt><trkpt lat="45.7554553" lon="8.9509682"><ele>415.0</ele><time>2026-04-07T14:47:19.18Z</time></trkpt><trkpt lat="45.755385" lon="8.951024"><ele>415.0</ele><time>2026-04-07T14:47:23.128Z</time></trkpt><trkpt lat="45.7553235" lon="8.9510745"><ele>415.0</ele><time>2026-04-07T14:47:27.15Z</time></trkpt><trkpt lat="45.7552679" lon="8.9511353"><ele>415.0</ele><time>2026-04-07T14:47:31.128Z</time></trkpt><trkpt lat="45.7552361" lon="8.951215"><ele>415.2857142857143</ele><time>2026-04-07T14:47:36.128Z</time></trkpt><trkpt lat="45.7551938" lon="8.9512821"><ele>415.57142857142856</ele><time>2026-04-07T14:47:41.167Z</time></trkpt><trkpt lat="45.7551565" lon="8.951359"><ele>415.8571428571429</ele><time>2026-04-07T14:47:45.071Z</time></trkpt><trkpt lat="45.7551081" lon="8.9514507"><ele>416.1428571428571</ele><time>2026-04-07T14:47:50.231Z</time></trkpt><trkpt lat="45.7550437" lon="8.9515172"><ele>416.4285714285714</ele><time>2026-04-07T14:47:55.146Z</time></trkpt><trkpt lat="45.754987" lon="8.9515612"><ele>416.7142857142857</ele><time>2026-04-07T14:47:59.156Z</time></trkpt><trkpt lat="45.7549253" lon="8.9516146"><ele>417.0</ele><time>2026-04-07T14:48:04.228Z</time></trkpt><trkpt lat="45.7548803" lon="8.9516831"><ele>417.14285714285717</ele><time>2026-04-07T14:48:09.127Z</time></trkpt><trkpt lat="45.7548283" lon="8.9517466"><ele>417.2857142857143</ele><time>2026-04-07T14:48:14.032Z</time></trkpt><trkpt lat="45.7547802" lon="8.9518094"><ele>417.42857142857144</ele><time>2026-04-07T14:48:17.195Z</time></trkpt><trkpt lat="45.7547274" lon="8.9518665"><ele>417.57142857142856</ele><time>2026-04-07T14:48:20.129Z</time></trkpt><trkpt lat="45.7546787" lon="8.9519252"><ele>417.71428571428567</ele><time>2026-04-07T14:48:24.134Z</time></trkpt><trkpt lat="45.7546196" lon="8.9519797"><ele>417.85714285714283</ele><time>2026-04-07T14:48:28.144Z</time></trkpt><trkpt lat="45.7545515" lon="8.9520005"><ele>418.0</ele><time>2026-04-07T14:48:33.186Z</time></trkpt><trkpt lat="45.7544843" lon="8.9519992"><ele>418.0</ele><time>2026-04-07T14:48:40.212Z</time></trkpt><trkpt lat="45.7544178" lon="8.9520138"><ele>418.0</ele><time>2026-04-07T14:48:45.086Z</time></trkpt><trkpt lat="45.7543529" lon="8.9520103"><ele>418.0</ele><time>2026-04-07T14:48:49.193Z</time></trkpt><trkpt lat="45.754298" lon="8.9520702"><ele>418.0</ele><time>2026-04-07T14:48:58.163Z</time></trkpt><trkpt lat="45.7542309" lon="8.952107"><ele>418.0</ele><time>2026-04-07T14:49:03.151Z</time></trkpt><trkpt lat="45.7541617" lon="8.9521662"><ele>418.0</ele><time>2026-04-07T14:49:07.215Z</time></trkpt><trkpt lat="45.7540983" lon="8.9521953"><ele>418.0</ele><time>2026-04-07T14:49:13.066Z</time></trkpt><trkpt lat="45.7540395" lon="8.9522427"><ele>418.2857142857143</ele><time>2026-04-07T14:49:19.152Z</time></trkpt><trkpt lat="45.7539486" lon="8.9521976"><ele>418.57142857142856</ele><time>2026-04-07T14:49:20.202Z</time></trkpt><trkpt lat="45.7538764" lon="8.9522018"><ele>418.8571428571429</ele><time>2026-04-07T14:49:23.141Z</time></trkpt><trkpt lat="45.7538135" lon="8.9522059"><ele>419.1428571428571</ele><time>2026-04-07T14:49:26.128Z</time></trkpt><trkpt lat="45.7537457" lon="8.9522432"><ele>419.42857142857144</ele><time>2026-04-07T14:49:30.131Z</time></trkpt><trkpt lat="45.7536876" lon="8.9522964"><ele>419.7142857142857</ele><time>2026-04-07T14:49:35.185Z</time></trkpt><trkpt lat="45.7536273" lon="8.9523279"><ele>420.0</ele><time>2026-04-07T14:49:43.193Z</time></trkpt><trkpt lat="45.7535656" lon="8.9523625"><ele>419.8</ele><time>2026-04-07T14:49:54.129Z</time></trkpt><trkpt lat="45.7534155" lon="8.9524055"><ele>419.6</ele><time>2026-04-07T14:50:04.163Z</time></trkpt><trkpt lat="45.7533538" lon="8.9524275"><ele>419.4</ele><time>2026-04-07T14:50:08.173Z</time></trkpt><trkpt lat="45.7531945" lon="8.9524751"><ele>419.2</ele><time>2026-04-07T14:50:15.163Z</time></trkpt><trkpt lat="45.7531326" lon="8.9525003"><ele>419.0</ele><time>2026-04-07T14:50:20.128Z</time></trkpt><trkpt lat="45.7530105" lon="8.9525211"><ele>418.3333333333333</ele><time>2026-04-07T14:50:26.163Z</time></trkpt><trkpt lat="45.7529507" lon="8.9525606"><ele>417.66666666666663</ele><time>2026-04-07T14:50:33.152Z</time></trkpt><trkpt lat="45.7528884" lon="8.952602"><ele>417.0</ele><time>2026-04-07T14:50:39.225Z</time></trkpt><trkpt lat="45.7528218" lon="8.9526438"><ele>416.33333333333337</ele><time>2026-04-07T14:50:46.127Z</time></trkpt><trkpt lat="45.7527614" lon="8.9526724"><ele>415.6666666666667</ele><time>2026-04-07T14:50:55.192Z</time></trkpt><trkpt lat="45.7526097" lon="8.9526929"><ele>415.0</ele><time>2026-04-07T14:51:04.171Z</time></trkpt><trkpt lat="45.752534" lon="8.9526893"><ele>414.33333333333337</ele><time>2026-04-07T14:51:10.25Z</time></trkpt><trkpt lat="45.7524681" lon="8.952682"><ele>413.6666666666667</ele><time>2026-04-07T14:51:15.202Z</time></trkpt><trkpt lat="45.7524031" lon="8.9526824"><ele>413.0</ele><time>2026-04-07T14:51:20.129Z</time></trkpt><trkpt lat="45.7523425" lon="8.9527247"><ele>412.33333333333337</ele><time>2026-04-07T14:51:29.181Z</time></trkpt><trkpt lat="45.7522816" lon="8.9527517"><ele>411.6666666666667</ele><time>2026-04-07T14:51:33.145Z</time></trkpt><trkpt lat="45.7521405" lon="8.9527684"><ele>411.0</ele><time>2026-04-07T14:51:38.301Z</time></trkpt><trkpt lat="45.7520735" lon="8.9527536"><ele>411.0</ele><time>2026-04-07T14:51:40.341Z</time></trkpt><trkpt lat="45.7520088" lon="8.9527758"><ele>411.0</ele><time>2026-04-07T14:51:46.466Z</time></trkpt><trkpt lat="45.751862" lon="8.9528177"><ele>411.0</ele><time>2026-04-07T14:51:57.961Z</time></trkpt><trkpt lat="45.7517855" lon="8.9528486"><ele>411.0</ele><time>2026-04-07T14:52:03.089Z</time></trkpt><trkpt lat="45.7517407" lon="8.9529196"><ele>411.0</ele><time>2026-04-07T14:52:06.232Z</time></trkpt><trkpt lat="45.7516598" lon="8.9528628"><ele>410.7142857142857</ele><time>2026-04-07T14:52:10.2Z</time></trkpt><trkpt lat="45.7515947" lon="8.9528577"><ele>410.42857142857144</ele><time>2026-04-07T14:52:12.148Z</time></trkpt><trkpt lat="45.7515135" lon="8.9528926"><ele>410.1428571428571</ele><time>2026-04-07T14:52:20.168Z</time></trkpt><trkpt lat="45.751456" lon="8.9529318"><ele>409.8571428571429</ele><time>2026-04-07T14:52:25.21Z</time></trkpt><trkpt lat="45.7513894" lon="8.9529705"><ele>409.5714285714286</ele><time>2026-04-07T14:52:30.136Z</time></trkpt><trkpt lat="45.7513199" lon="8.953003"><ele>409.2857142857143</ele><time>2026-04-07T14:52:34.148Z</time></trkpt><trkpt lat="45.7512474" lon="8.953002"><ele>409.0</ele><time>2026-04-07T14:52:38.207Z</time></trkpt><trkpt lat="45.7511612" lon="8.9530085"><ele>409.0</ele><time>2026-04-07T14:52:44.13Z</time></trkpt><trkpt lat="45.7510849" lon="8.9530337"><ele>409.0</ele><time>2026-04-07T14:52:50.631Z</time></trkpt><trkpt lat="45.7510149" lon="8.9530633"><ele>409.0</ele><time>2026-04-07T14:52:55.871Z</time></trkpt><trkpt lat="45.7509584" lon="8.953117"><ele>409.0</ele><time>2026-04-07T14:52:59.991Z</time></trkpt><trkpt lat="45.7508808" lon="8.9531334"><ele>409.0</ele><time>2026-04-07T14:53:11.172Z</time></trkpt><trkpt lat="45.7509303" lon="8.9531925"><ele>409.0</ele><time>2026-04-07T14:53:27.891Z</time></trkpt><trkpt lat="45.7509946" lon="8.9532713"><ele>409.0</ele><time>2026-04-07T14:53:36.022Z</time></trkpt><trkpt lat="45.7510331" lon="8.9533496"><ele>408.4285714285714</ele><time>2026-04-07T14:53:40.15Z</time></trkpt><trkpt lat="45.7510778" lon="8.9534355"><ele>407.8571428571429</ele><time>2026-04-07T14:53:44.211Z</time></trkpt><trkpt lat="45.7511271" lon="8.9535046"><ele>407.2857142857143</ele><time>2026-04-07T14:53:50.128Z</time></trkpt><trkpt lat="45.7511753" lon="8.9535659"><ele>406.71428571428567</ele><time>2026-04-07T14:53:54.128Z</time></trkpt><trkpt lat="45.7512229" lon="8.9536421"><ele>406.1428571428571</ele><time>2026-04-07T14:53:59.17Z</time></trkpt><trkpt lat="45.7512663" lon="8.9537099"><ele>405.57142857142856</ele><time>2026-04-07T14:54:02.234Z</time></trkpt><trkpt lat="45.751282" lon="8.9537995"><ele>405.0</ele><time>2026-04-07T14:54:07.127Z</time></trkpt><trkpt lat="45.7513042" lon="8.9538864"><ele>404.99999999999994</ele><time>2026-04-07T14:54:27.128Z</time></trkpt><trkpt lat="45.7513406" lon="8.9540072"><ele>405.0</ele><time>2026-04-07T14:54:30.128Z</time></trkpt><trkpt lat="45.7513422" lon="8.9540978"><ele>405.0</ele><time>2026-04-07T14:55:34.146Z</time></trkpt><trkpt lat="45.7513184" lon="8.9541825"><ele>405.0</ele><time>2026-04-07T14:55:50.13Z</time></trkpt><trkpt lat="45.7513766" lon="8.9542425"><ele>405.0</ele><time>2026-04-07T14:56:03.172Z</time></trkpt><trkpt lat="45.7514423" lon="8.9543089"><ele>404.99999999999994</ele><time>2026-04-07T14:56:09.23Z</time></trkpt><trkpt lat="45.751508" lon="8.9543671"><ele>405.0</ele><time>2026-04-07T14:56:13.252Z</time></trkpt><trkpt lat="45.7515759" lon="8.9544059"><ele>404.4285714285714</ele><time>2026-04-07T14:56:18.572Z</time></trkpt><trkpt lat="45.7516345" lon="8.9544629"><ele>403.85714285714283</ele><time>2026-04-07T14:56:24.539Z</time></trkpt><trkpt lat="45.7516838" lon="8.9545241"><ele>403.2857142857143</ele><time>2026-04-07T14:56:29.581Z</time></trkpt><trkpt lat="45.7517319" lon="8.9546062"><ele>402.71428571428567</ele><time>2026-04-07T14:56:34.691Z</time></trkpt><trkpt lat="45.75177" lon="8.954695"><ele>402.14285714285717</ele><time>2026-04-07T14:56:39.713Z</time></trkpt><trkpt lat="45.7518038" lon="8.9547898"><ele>401.57142857142856</ele><time>2026-04-07T14:56:45.75Z</time></trkpt><trkpt lat="45.751838" lon="8.9548839"><ele>401.0</ele><time>2026-04-07T14:56:50.811Z</time></trkpt><trkpt lat="45.7518522" lon="8.9549827"><ele>401.2857142857143</ele><time>2026-04-07T14:56:54.84Z</time></trkpt><trkpt lat="45.7518655" lon="8.9550716"><ele>401.57142857142856</ele><time>2026-04-07T14:56:57.904Z</time></trkpt><trkpt lat="45.7519096" lon="8.9551543"><ele>401.8571428571429</ele><time>2026-04-07T14:57:02.993Z</time></trkpt><trkpt lat="45.7519465" lon="8.9552286"><ele>402.1428571428571</ele><time>2026-04-07T14:57:09.004Z</time></trkpt><trkpt lat="45.7519855" lon="8.9553264"><ele>402.4285714285714</ele><time>2026-04-07T14:57:14.99Z</time></trkpt><trkpt lat="45.7519987" lon="8.9554355"><ele>402.7142857142857</ele><time>2026-04-07T14:57:19.932Z</time></trkpt><trkpt lat="45.7519968" lon="8.9555266"><ele>403.0</ele><time>2026-04-07T14:57:23.946Z</time></trkpt><trkpt lat="45.752002" lon="8.9556225"><ele>403.0</ele><time>2026-04-07T14:57:27.971Z</time></trkpt><trkpt lat="45.7520214" lon="8.9557173"><ele>403.0</ele><time>2026-04-07T14:57:32.02Z</time></trkpt><trkpt lat="45.7520402" lon="8.9558267"><ele>403.0</ele><time>2026-04-07T14:57:36.071Z</time></trkpt><trkpt lat="45.7520728" lon="8.9559228"><ele>403.0</ele><time>2026-04-07T14:57:41.085Z</time></trkpt><trkpt lat="45.7520959" lon="8.9560085"><ele>403.0</ele><time>2026-04-07T14:57:46.107Z</time></trkpt><trkpt lat="45.7521114" lon="8.9561221"><ele>403.0</ele><time>2026-04-07T14:57:50.193Z</time></trkpt><trkpt lat="45.7521241" lon="8.9562269"><ele>403.0</ele><time>2026-04-07T14:57:54.294Z</time></trkpt><trkpt lat="45.7521441" lon="8.9563171"><ele>402.7142857142857</ele><time>2026-04-07T14:57:59.127Z</time></trkpt><trkpt lat="45.7521842" lon="8.9564034"><ele>402.4285714285714</ele><time>2026-04-07T14:58:05.031Z</time></trkpt><trkpt lat="45.7522204" lon="8.9564836"><ele>402.1428571428571</ele><time>2026-04-07T14:58:09.024Z</time></trkpt><trkpt lat="45.7522433" lon="8.9565708"><ele>401.8571428571429</ele><time>2026-04-07T14:58:13.052Z</time></trkpt><trkpt lat="45.7522574" lon="8.9566607"><ele>401.57142857142856</ele><time>2026-04-07T14:58:18.132Z</time></trkpt><trkpt lat="45.7522694" lon="8.956765"><ele>401.2857142857143</ele><time>2026-04-07T14:58:22.208Z</time></trkpt><trkpt lat="45.7522825" lon="8.9568639"><ele>401.0</ele><time>2026-04-07T14:58:26.251Z</time></trkpt><trkpt lat="45.752301" lon="8.9569602"><ele>400.57142857142856</ele><time>2026-04-07T14:58:30.135Z</time></trkpt><trkpt lat="45.7523281" lon="8.9570534"><ele>400.14285714285717</ele><time>2026-04-07T14:58:35.176Z</time></trkpt><trkpt lat="45.7523566" lon="8.9571544"><ele>399.71428571428567</ele><time>2026-04-07T14:58:40.127Z</time></trkpt><trkpt lat="45.7523967" lon="8.9572488"><ele>399.2857142857143</ele><time>2026-04-07T14:58:45.144Z</time></trkpt><trkpt lat="45.7524278" lon="8.9573398"><ele>398.85714285714283</ele><time>2026-04-07T14:58:50.186Z</time></trkpt><trkpt lat="45.7524398" lon="8.957441"><ele>398.4285714285714</ele><time>2026-04-07T14:58:54.128Z</time></trkpt><trkpt lat="45.7524476" lon="8.9575435"><ele>398.0</ele><time>2026-04-07T14:58:59.129Z</time></trkpt><trkpt lat="45.7524683" lon="8.957639"><ele>397.49999999999994</ele><time>2026-04-07T14:59:04.164Z</time></trkpt><trkpt lat="45.7525042" lon="8.957737"><ele>397.0</ele><time>2026-04-07T14:59:09.069Z</time></trkpt><trkpt lat="45.7525379" lon="8.9578364"><ele>396.5</ele><time>2026-04-07T14:59:13.174Z</time></trkpt><trkpt lat="45.7525694" lon="8.9579316"><ele>396.0</ele><time>2026-04-07T14:59:17.224Z</time></trkpt><trkpt lat="45.7526052" lon="8.9580249"><ele>395.49999999999994</ele><time>2026-04-07T14:59:22.245Z</time></trkpt><trkpt lat="45.7526408" lon="8.9581165"><ele>395.0</ele><time>2026-04-07T14:59:27.29Z</time></trkpt><trkpt lat="45.7526774" lon="8.9582118"><ele>395.0</ele><time>2026-04-07T14:59:32.376Z</time></trkpt><trkpt lat="45.7527006" lon="8.9583148"><ele>395.0</ele><time>2026-04-07T14:59:36.391Z</time></trkpt><trkpt lat="45.752707" lon="8.9584083"><ele>395.0</ele><time>2026-04-07T14:59:40.124Z</time></trkpt><trkpt lat="45.7527141" lon="8.9584981"><ele>395.0</ele><time>2026-04-07T14:59:43.492Z</time></trkpt><trkpt lat="45.7527342" lon="8.9585847"><ele>395.0</ele><time>2026-04-07T14:59:47.611Z</time></trkpt><trkpt lat="45.7527704" lon="8.9586779"><ele>395.0</ele><time>2026-04-07T14:59:52.898Z</time></trkpt><trkpt lat="45.7528041" lon="8.9587566"><ele>395.0</ele><time>2026-04-07T14:59:56.251Z</time></trkpt><trkpt lat="45.7528396" lon="8.9588361"><ele>395.4285714285714</ele><time>2026-04-07T15:00:00.191Z</time></trkpt><trkpt lat="45.7528613" lon="8.9589368"><ele>395.8571428571429</ele><time>2026-04-07T15:00:04.203Z</time></trkpt><trkpt lat="45.7528958" lon="8.9590291"><ele>396.2857142857143</ele><time>2026-04-07T15:00:09.128Z</time></trkpt><trkpt lat="45.7529301" lon="8.9591216"><ele>396.71428571428567</ele><time>2026-04-07T15:00:15.151Z</time></trkpt><trkpt lat="45.752966" lon="8.9591995"><ele>397.1428571428571</ele><time>2026-04-07T15:00:19.172Z</time></trkpt><trkpt lat="45.7530054" lon="8.9592782"><ele>397.57142857142856</ele><time>2026-04-07T15:00:22.128Z</time></trkpt><trkpt lat="45.7530314" lon="8.9593802"><ele>398.0</ele><time>2026-04-07T15:00:26.2Z</time></trkpt><trkpt lat="45.7530688" lon="8.9594592"><ele>397.99999999999994</ele><time>2026-04-07T15:00:31.129Z</time></trkpt><trkpt lat="45.7531214" lon="8.9595288"><ele>398.0</ele><time>2026-04-07T15:00:37.254Z</time></trkpt><trkpt lat="45.753158" lon="8.9596026"><ele>398.0</ele><time>2026-04-07T15:00:42.032Z</time></trkpt><trkpt lat="45.7531909" lon="8.9596858"><ele>398.0</ele><time>2026-04-07T15:00:46.006Z</time></trkpt><trkpt lat="45.753237" lon="8.9597729"><ele>398.0</ele><time>2026-04-07T15:00:51.178Z</time></trkpt><trkpt lat="45.7532869" lon="8.9598478"><ele>397.99999999999994</ele><time>2026-04-07T15:00:56.128Z</time></trkpt><trkpt lat="45.7533426" lon="8.9599175"><ele>398.0</ele><time>2026-04-07T15:01:00.129Z</time></trkpt><trkpt lat="45.7534041" lon="8.9599873"><ele>397.8333333333333</ele><time>2026-04-07T15:01:05.064Z</time></trkpt><trkpt lat="45.7534617" lon="8.9600557"><ele>397.66666666666663</ele><time>2026-04-07T15:01:12.193Z</time></trkpt><trkpt lat="45.7535079" lon="8.9601183"><ele>397.5</ele><time>2026-04-07T15:01:17.236Z</time></trkpt><trkpt lat="45.7535559" lon="8.9601794"><ele>397.33333333333337</ele><time>2026-04-07T15:01:24.351Z</time></trkpt><trkpt lat="45.7536265" lon="8.960172"><ele>397.1666666666667</ele><time>2026-04-07T15:01:34.509Z</time></trkpt><trkpt lat="45.7536906" lon="8.960161"><ele>397.0</ele><time>2026-04-07T15:01:41.625Z</time></trkpt><trkpt lat="45.7538284" lon="8.960127"><ele>396.8</ele><time>2026-04-07T15:01:50.885Z</time></trkpt><trkpt lat="45.7539935" lon="8.9600892"><ele>396.6</ele><time>2026-04-07T15:02:00.088Z</time></trkpt><trkpt lat="45.7540632" lon="8.9600674"><ele>396.40000000000003</ele><time>2026-04-07T15:02:05.207Z</time></trkpt><trkpt lat="45.7541184" lon="8.9600158"><ele>396.20000000000005</ele><time>2026-04-07T15:02:09.205Z</time></trkpt><trkpt lat="45.7541912" lon="8.9600077"><ele>396.0</ele><time>2026-04-07T15:02:17.212Z</time></trkpt><trkpt lat="45.7543136" lon="8.9599868"><ele>396.6666666666667</ele><time>2026-04-07T15:02:23.183Z</time></trkpt><trkpt lat="45.754468" lon="8.9600342"><ele>397.33333333333337</ele><time>2026-04-07T15:02:31.204Z</time></trkpt><trkpt lat="45.7545413" lon="8.9600564"><ele>398.0</ele><time>2026-04-07T15:02:35.071Z</time></trkpt><trkpt lat="45.7546014" lon="8.9600917"><ele>398.6666666666667</ele><time>2026-04-07T15:02:38.13Z</time></trkpt><trkpt lat="45.7546741" lon="8.9601502"><ele>399.33333333333337</ele><time>2026-04-07T15:02:42.268Z</time></trkpt><trkpt lat="45.7547355" lon="8.9601855"><ele>400.0</ele><time>2026-04-07T15:02:46.373Z</time></trkpt><trkpt lat="45.754789" lon="8.9602452"><ele>400.00000000000006</ele><time>2026-04-07T15:02:51.557Z</time></trkpt><trkpt lat="45.7548394" lon="8.9603062"><ele>400.0</ele><time>2026-04-07T15:02:57.651Z</time></trkpt><trkpt lat="45.7548848" lon="8.9603796"><ele>400.0</ele><time>2026-04-07T15:03:00.764Z</time></trkpt><trkpt lat="45.7549254" lon="8.9604749"><ele>400.0</ele><time>2026-04-07T15:03:04.865Z</time></trkpt><trkpt lat="45.754957" lon="8.9605688"><ele>400.0</ele><time>2026-04-07T15:03:08.931Z</time></trkpt><trkpt lat="45.7549913" lon="8.9606475"><ele>400.00000000000006</ele><time>2026-04-07T15:03:13.974Z</time></trkpt><trkpt lat="45.7550318" lon="8.9607172"><ele>400.0</ele><time>2026-04-07T15:03:19.212Z</time></trkpt><trkpt lat="45.7550755" lon="8.9609176"><ele>400.00000000000006</ele><time>2026-04-07T15:03:31.244Z</time></trkpt><trkpt lat="45.7550722" lon="8.9610116"><ele>400.0</ele><time>2026-04-07T15:03:33.192Z</time></trkpt><trkpt lat="45.7550894" lon="8.9611039"><ele>400.0</ele><time>2026-04-07T15:03:39.15Z</time></trkpt><trkpt lat="45.7550957" lon="8.9611949"><ele>400.0</ele><time>2026-04-07T15:03:46.14Z</time></trkpt><trkpt lat="45.7551331" lon="8.9612743"><ele>400.0</ele><time>2026-04-07T15:03:51.182Z</time></trkpt><trkpt lat="45.7551852" lon="8.9613387"><ele>400.00000000000006</ele><time>2026-04-07T15:03:56.092Z</time></trkpt><trkpt lat="45.7552256" lon="8.9614158"><ele>400.0</ele><time>2026-04-07T15:04:03.213Z</time></trkpt><trkpt lat="45.7552464" lon="8.9615084"><ele>400.00000000000006</ele><time>2026-04-07T15:04:11.251Z</time></trkpt><trkpt lat="45.7552572" lon="8.9616107"><ele>400.0</ele><time>2026-04-07T15:04:18.129Z</time></trkpt><trkpt lat="45.75524" lon="8.9617038"><ele>400.0</ele><time>2026-04-07T15:04:26.129Z</time></trkpt><trkpt lat="45.7551801" lon="8.9617599"><ele>400.0</ele><time>2026-04-07T15:04:35.181Z</time></trkpt><trkpt lat="45.7551151" lon="8.9617694"><ele>400.0</ele><time>2026-04-07T15:04:44.129Z</time></trkpt><trkpt lat="45.755052" lon="8.9617754"><ele>400.00000000000006</ele><time>2026-04-07T15:04:53.169Z</time></trkpt><trkpt lat="45.7549817" lon="8.9617645"><ele>400.0</ele><time>2026-04-07T15:05:01.258Z</time></trkpt><trkpt lat="45.7549163" lon="8.9617643"><ele>399.5714285714286</ele><time>2026-04-07T15:05:08.012Z</time></trkpt><trkpt lat="45.7548176" lon="8.9617381"><ele>399.14285714285717</ele><time>2026-04-07T15:05:13.128Z</time></trkpt><trkpt lat="45.7547569" lon="8.9617671"><ele>398.7142857142857</ele><time>2026-04-07T15:05:19.125Z</time></trkpt><trkpt lat="45.7546967" lon="8.9618007"><ele>398.28571428571433</ele><time>2026-04-07T15:05:25.137Z</time></trkpt><trkpt lat="45.7546275" lon="8.9618422"><ele>397.85714285714283</ele><time>2026-04-07T15:05:31.102Z</time></trkpt><trkpt lat="45.7545703" lon="8.9618879"><ele>397.42857142857144</ele><time>2026-04-07T15:05:37.882Z</time></trkpt><trkpt lat="45.7545248" lon="8.9619725"><ele>397.0</ele><time>2026-04-07T15:05:46.129Z</time></trkpt><trkpt lat="45.7544831" lon="8.9620493"><ele>397.0</ele><time>2026-04-07T15:05:53.793Z</time></trkpt><trkpt lat="45.7544305" lon="8.9621029"><ele>397.0</ele><time>2026-04-07T15:06:00.129Z</time></trkpt><trkpt lat="45.754311" lon="8.9621744"><ele>397.0</ele><time>2026-04-07T15:06:08.13Z</time></trkpt><trkpt lat="45.7542523" lon="8.9622234"><ele>397.0</ele><time>2026-04-07T15:06:15.193Z</time></trkpt><trkpt lat="45.7542035" lon="8.9622908"><ele>397.0</ele><time>2026-04-07T15:06:21.223Z</time></trkpt><trkpt lat="45.7540946" lon="8.9624095"><ele>396.6666666666667</ele><time>2026-04-07T15:06:30.214Z</time></trkpt><trkpt lat="45.7540464" lon="8.9624822"><ele>396.33333333333337</ele><time>2026-04-07T15:06:37.755Z</time></trkpt><trkpt lat="45.7539926" lon="8.9625445"><ele>396.0</ele><time>2026-04-07T15:06:45.129Z</time></trkpt><trkpt lat="45.7538728" lon="8.9627023"><ele>395.66666666666663</ele><time>2026-04-07T15:06:56.13Z</time></trkpt><trkpt lat="45.7538301" lon="8.9627718"><ele>395.3333333333333</ele><time>2026-04-07T15:07:02.251Z</time></trkpt><trkpt lat="45.7537914" lon="8.9628432"><ele>395.0</ele><time>2026-04-07T15:07:09.975Z</time></trkpt><trkpt lat="45.7537531" lon="8.9629412"><ele>394.99999999999994</ele><time>2026-04-07T15:07:16.733Z</time></trkpt><trkpt lat="45.7537254" lon="8.9630436"><ele>395.0</ele><time>2026-04-07T15:07:23.407Z</time></trkpt><trkpt lat="45.7537004" lon="8.9631328"><ele>395.0</ele><time>2026-04-07T15:07:28.841Z</time></trkpt><trkpt lat="45.7536992" lon="8.9632303"><ele>395.0</ele><time>2026-04-07T15:07:36.129Z</time></trkpt><trkpt lat="45.7536663" lon="8.9633798"><ele>394.99999999999994</ele><time>2026-04-07T15:07:43.869Z</time></trkpt><trkpt lat="45.7536687" lon="8.9634738"><ele>395.0</ele><time>2026-04-07T15:07:53.168Z</time></trkpt><trkpt lat="45.7536855" lon="8.9635737"><ele>394.66666666666663</ele><time>2026-04-07T15:07:59.128Z</time></trkpt><trkpt lat="45.7537049" lon="8.9636615"><ele>394.3333333333333</ele><time>2026-04-07T15:08:06.129Z</time></trkpt><trkpt lat="45.7537337" lon="8.9637572"><ele>394.0</ele><time>2026-04-07T15:08:13.129Z</time></trkpt><trkpt lat="45.753772" lon="8.9638643"><ele>393.66666666666663</ele><time>2026-04-07T15:08:20.129Z</time></trkpt><trkpt lat="45.7538125" lon="8.9639559"><ele>393.3333333333333</ele><time>2026-04-07T15:08:22.17Z</time></trkpt><trkpt lat="45.7538584" lon="8.9640528"><ele>393.0</ele><time>2026-04-07T15:08:28.128Z</time></trkpt><trkpt lat="45.7538964" lon="8.9641594"><ele>392.1666666666667</ele><time>2026-04-07T15:08:32.128Z</time></trkpt><trkpt lat="45.7539245" lon="8.9642465"><ele>391.33333333333337</ele><time>2026-04-07T15:08:39.129Z</time></trkpt><trkpt lat="45.7539301" lon="8.9643403"><ele>390.5</ele><time>2026-04-07T15:08:49.128Z</time></trkpt><trkpt lat="45.7539472" lon="8.9644287"><ele>389.6666666666667</ele><time>2026-04-07T15:08:56.129Z</time></trkpt><trkpt lat="45.7539779" lon="8.9645306"><ele>388.83333333333337</ele><time>2026-04-07T15:09:01.129Z</time></trkpt><trkpt lat="45.7540071" lon="8.9646167"><ele>388.0</ele><time>2026-04-07T15:09:04.129Z</time></trkpt><trkpt lat="45.7540418" lon="8.9648015"><ele>388.0</ele><time>2026-04-07T15:09:16.293Z</time></trkpt><trkpt lat="45.7540543" lon="8.9649146"><ele>388.0</ele><time>2026-04-07T15:09:18.298Z</time></trkpt><trkpt lat="45.7540889" lon="8.9650025"><ele>388.0</ele><time>2026-04-07T15:09:21.718Z</time></trkpt><trkpt lat="45.754125" lon="8.9651152"><ele>388.0</ele><time>2026-04-07T15:09:32.05Z</time></trkpt><trkpt lat="45.7541547" lon="8.9652022"><ele>388.0</ele><time>2026-04-07T15:09:37.318Z</time></trkpt><trkpt lat="45.7541544" lon="8.9653007"><ele>388.0</ele><time>2026-04-07T15:09:44.193Z</time></trkpt><trkpt lat="45.7541526" lon="8.9654095"><ele>388.0</ele><time>2026-04-07T15:09:50.17Z</time></trkpt><trkpt lat="45.7541699" lon="8.9655118"><ele>387.0</ele><time>2026-04-07T15:09:54.149Z</time></trkpt><trkpt lat="45.7541869" lon="8.965612"><ele>386.0</ele><time>2026-04-07T15:09:58.227Z</time></trkpt><trkpt lat="45.7541904" lon="8.9657034"><ele>385.0</ele><time>2026-04-07T15:10:02.228Z</time></trkpt><trkpt lat="45.7542058" lon="8.9657971"><ele>384.0</ele><time>2026-04-07T15:10:06.19Z</time></trkpt><trkpt lat="45.7542331" lon="8.9658939"><ele>383.0</ele><time>2026-04-07T15:10:11.225Z</time></trkpt><trkpt lat="45.7542595" lon="8.9659833"><ele>382.0</ele><time>2026-04-07T15:10:15.889Z</time></trkpt><trkpt lat="45.7542958" lon="8.9660657"><ele>381.0</ele><time>2026-04-07T15:10:21.199Z</time></trkpt><trkpt lat="45.7543293" lon="8.9661536"><ele>380.2857142857143</ele><time>2026-04-07T15:10:26.131Z</time></trkpt><trkpt lat="45.7543431" lon="8.9662469"><ele>379.5714285714286</ele><time>2026-04-07T15:10:32.147Z</time></trkpt><trkpt lat="45.7543449" lon="8.9663439"><ele>378.8571428571429</ele><time>2026-04-07T15:10:39.215Z</time></trkpt><trkpt lat="45.7543483" lon="8.9664504"><ele>378.1428571428571</ele><time>2026-04-07T15:10:44.132Z</time></trkpt><trkpt lat="45.7543433" lon="8.9665408"><ele>377.42857142857144</ele><time>2026-04-07T15:10:48.065Z</time></trkpt><trkpt lat="45.7543076" lon="8.9666901"><ele>376.7142857142857</ele><time>2026-04-07T15:11:03.131Z</time></trkpt><trkpt lat="45.7542858" lon="8.9667779"><ele>376.0</ele><time>2026-04-07T15:11:07.141Z</time></trkpt><trkpt lat="45.7542697" lon="8.9668753"><ele>375.16666666666663</ele><time>2026-04-07T15:11:13.125Z</time></trkpt><trkpt lat="45.754237" lon="8.9669667"><ele>374.3333333333333</ele><time>2026-04-07T15:11:18.085Z</time></trkpt><trkpt lat="45.7541873" lon="8.9670646"><ele>373.5</ele><time>2026-04-07T15:11:23.191Z</time></trkpt><trkpt lat="45.7541663" lon="8.9671739"><ele>372.6666666666667</ele><time>2026-04-07T15:11:26.192Z</time></trkpt><trkpt lat="45.7541498" lon="8.9672743"><ele>371.83333333333337</ele><time>2026-04-07T15:11:30.261Z</time></trkpt><trkpt lat="45.7541321" lon="8.9673806"><ele>371.0</ele><time>2026-04-07T15:11:34.351Z</time></trkpt><trkpt lat="45.7541207" lon="8.9674931"><ele>370.7142857142857</ele><time>2026-04-07T15:11:39.432Z</time></trkpt><trkpt lat="45.7541308" lon="8.9676031"><ele>370.42857142857144</ele><time>2026-04-07T15:11:44.482Z</time></trkpt><trkpt lat="45.7541584" lon="8.967693"><ele>370.1428571428571</ele><time>2026-04-07T15:11:48.632Z</time></trkpt><trkpt lat="45.7541837" lon="8.9677781"><ele>369.8571428571429</ele><time>2026-04-07T15:11:52.711Z</time></trkpt><trkpt lat="45.7542069" lon="8.9678852"><ele>369.57142857142856</ele><time>2026-04-07T15:11:57.789Z</time></trkpt><trkpt lat="45.7542302" lon="8.9679889"><ele>369.2857142857143</ele><time>2026-04-07T15:12:02.98Z</time></trkpt><trkpt lat="45.7542485" lon="8.9680891"><ele>369.0</ele><time>2026-04-07T15:12:08.089Z</time></trkpt><trkpt lat="45.7542699" lon="8.9681928"><ele>369.0</ele><time>2026-04-07T15:12:13.186Z</time></trkpt><trkpt lat="45.7542856" lon="8.9682879"><ele>369.0</ele><time>2026-04-07T15:12:16.242Z</time></trkpt><trkpt lat="45.7543163" lon="8.9683943"><ele>369.0</ele><time>2026-04-07T15:12:20.433Z</time></trkpt><trkpt lat="45.7543481" lon="8.9684795"><ele>369.0</ele><time>2026-04-07T15:12:24.47Z</time></trkpt><trkpt lat="45.7543614" lon="8.9685779"><ele>369.0</ele><time>2026-04-07T15:12:29.609Z</time></trkpt><trkpt lat="45.7543798" lon="8.9686732"><ele>369.0</ele><time>2026-04-07T15:12:34.691Z</time></trkpt><trkpt lat="45.7544038" lon="8.9687617"><ele>369.0</ele><time>2026-04-07T15:12:39.801Z</time></trkpt><trkpt lat="45.7544137" lon="8.9688713"><ele>368.7142857142857</ele><time>2026-04-07T15:12:44.827Z</time></trkpt><trkpt lat="45.7544372" lon="8.9689669"><ele>368.42857142857144</ele><time>2026-04-07T15:12:49.98Z</time></trkpt><trkpt lat="45.7544611" lon="8.969052"><ele>368.1428571428571</ele><time>2026-04-07T15:12:54.057Z</time></trkpt><trkpt lat="45.7544665" lon="8.9691643"><ele>367.8571428571429</ele><time>2026-04-07T15:12:58.157Z</time></trkpt><trkpt lat="45.7544917" lon="8.9692595"><ele>367.5714285714286</ele><time>2026-04-07T15:13:08.13Z</time></trkpt><trkpt lat="45.7545008" lon="8.9693624"><ele>367.2857142857143</ele><time>2026-04-07T15:13:12.132Z</time></trkpt><trkpt lat="45.7545198" lon="8.9694601"><ele>367.0</ele><time>2026-04-07T15:13:15.053Z</time></trkpt><trkpt lat="45.7545421" lon="8.96955"><ele>366.7142857142857</ele><time>2026-04-07T15:13:18.06Z</time></trkpt><trkpt lat="45.7545754" lon="8.9696475"><ele>366.42857142857144</ele><time>2026-04-07T15:13:22.088Z</time></trkpt><trkpt lat="45.7546001" lon="8.9697338"><ele>366.14285714285717</ele><time>2026-04-07T15:13:26.131Z</time></trkpt><trkpt lat="45.7546425" lon="8.9698285"><ele>365.8571428571429</ele><time>2026-04-07T15:13:32.132Z</time></trkpt><trkpt lat="45.7546875" lon="8.9699029"><ele>365.57142857142856</ele><time>2026-04-07T15:13:37.251Z</time></trkpt><trkpt lat="45.7547198" lon="8.9699895"><ele>365.28571428571433</ele><time>2026-04-07T15:13:42.149Z</time></trkpt><trkpt lat="45.7547615" lon="8.9700603"><ele>365.0</ele><time>2026-04-07T15:13:47.129Z</time></trkpt><trkpt lat="45.7547991" lon="8.9701473"><ele>365.00000000000006</ele><time>2026-04-07T15:13:51.199Z</time></trkpt><trkpt lat="45.7548416" lon="8.9702421"><ele>365.0</ele><time>2026-04-07T15:13:55.093Z</time></trkpt><trkpt lat="45.754877" lon="8.9703361"><ele>365.0</ele><time>2026-04-07T15:13:59.131Z</time></trkpt><trkpt lat="45.7549111" lon="8.9704218"><ele>365.0</ele><time>2026-04-07T15:14:04.112Z</time></trkpt><trkpt lat="45.7549453" lon="8.9705249"><ele>365.0</ele><time>2026-04-07T15:14:09.186Z</time></trkpt><trkpt lat="45.7549841" lon="8.9706151"><ele>365.00000000000006</ele><time>2026-04-07T15:14:13.129Z</time></trkpt><trkpt lat="45.7550224" lon="8.9706952"><ele>365.0</ele><time>2026-04-07T15:14:17.206Z</time></trkpt><trkpt lat="45.7550575" lon="8.970779"><ele>365.00000000000006</ele><time>2026-04-07T15:14:21.13Z</time></trkpt><trkpt lat="45.755093" lon="8.9708543"><ele>365.0</ele><time>2026-04-07T15:14:25.129Z</time></trkpt><trkpt lat="45.7551447" lon="8.9709272"><ele>365.0</ele><time>2026-04-07T15:14:30.152Z</time></trkpt><trkpt lat="45.7551898" lon="8.9709908"><ele>365.0</ele><time>2026-04-07T15:14:35.193Z</time></trkpt><trkpt lat="45.7552356" lon="8.9710681"><ele>365.0</ele><time>2026-04-07T15:14:40.129Z</time></trkpt><trkpt lat="45.7552911" lon="8.971114"><ele>365.00000000000006</ele><time>2026-04-07T15:14:45.013Z</time></trkpt><trkpt lat="45.7553503" lon="8.9711477"><ele>365.0</ele><time>2026-04-07T15:14:50.044Z</time></trkpt><trkpt lat="45.7554208" lon="8.9711056"><ele>364.8571428571429</ele><time>2026-04-07T15:14:56.993Z</time></trkpt><trkpt lat="45.755492" lon="8.9711223"><ele>364.7142857142857</ele><time>2026-04-07T15:15:03.092Z</time></trkpt><trkpt lat="45.7555543" lon="8.9711572"><ele>364.57142857142856</ele><time>2026-04-07T15:15:07.17Z</time></trkpt><trkpt lat="45.7556295" lon="8.9711781"><ele>364.42857142857144</ele><time>2026-04-07T15:15:13.25Z</time></trkpt><trkpt lat="45.7556634" lon="8.9710933"><ele>364.2857142857143</ele><time>2026-04-07T15:15:27.205Z</time></trkpt><trkpt lat="45.7556778" lon="8.9710006"><ele>364.14285714285717</ele><time>2026-04-07T15:15:33.151Z</time></trkpt><trkpt lat="45.755721" lon="8.9709127"><ele>364.0</ele><time>2026-04-07T15:15:37.071Z</time></trkpt><trkpt lat="45.7557836" lon="8.970877"><ele>363.85714285714283</ele><time>2026-04-07T15:15:40.212Z</time></trkpt><trkpt lat="45.7558385" lon="8.9708023"><ele>363.7142857142857</ele><time>2026-04-07T15:15:45.192Z</time></trkpt><trkpt lat="45.7558772" lon="8.9707219"><ele>363.57142857142856</ele><time>2026-04-07T15:15:50.128Z</time></trkpt><trkpt lat="45.7559452" lon="8.9706655"><ele>363.42857142857144</ele><time>2026-04-07T15:15:55.275Z</time></trkpt><trkpt lat="45.7560122" lon="8.9706483"><ele>363.2857142857143</ele><time>2026-04-07T15:15:59.17Z</time></trkpt><trkpt lat="45.75608" lon="8.9706453"><ele>363.1428571428571</ele><time>2026-04-07T15:16:02.148Z</time></trkpt><trkpt lat="45.7561528" lon="8.9706446"><ele>363.0</ele><time>2026-04-07T15:16:05.001Z</time></trkpt><trkpt lat="45.7562228" lon="8.970643"><ele>362.99999999999994</ele><time>2026-04-07T15:16:09.087Z</time></trkpt><trkpt lat="45.7562911" lon="8.9706285"><ele>363.0</ele><time>2026-04-07T15:16:13.144Z</time></trkpt><trkpt lat="45.7563592" lon="8.9706144"><ele>363.0</ele><time>2026-04-07T15:16:17.197Z</time></trkpt><trkpt lat="45.756423" lon="8.9706093"><ele>363.0</ele><time>2026-04-07T15:16:21.166Z</time></trkpt><trkpt lat="45.7564873" lon="8.9706161"><ele>363.0</ele><time>2026-04-07T15:16:25.176Z</time></trkpt><trkpt lat="45.7565581" lon="8.9706273"><ele>362.99999999999994</ele><time>2026-04-07T15:16:31.041Z</time></trkpt><trkpt lat="45.7566296" lon="8.9706488"><ele>363.0</ele><time>2026-04-07T15:16:37.142Z</time></trkpt><trkpt lat="45.7567049" lon="8.9706685"><ele>362.99999999999994</ele><time>2026-04-07T15:16:42.26Z</time></trkpt><trkpt lat="45.7567783" lon="8.9707051"><ele>363.0</ele><time>2026-04-07T15:16:47.128Z</time></trkpt><trkpt lat="45.7568446" lon="8.9707487"><ele>363.0</ele><time>2026-04-07T15:16:51.183Z</time></trkpt><trkpt lat="45.7569093" lon="8.9707674"><ele>363.0</ele><time>2026-04-07T15:16:56.13Z</time></trkpt><trkpt lat="45.7569724" lon="8.9707667"><ele>363.0</ele><time>2026-04-07T15:17:01.052Z</time></trkpt><trkpt lat="45.7570443" lon="8.9707294"><ele>362.99999999999994</ele><time>2026-04-07T15:17:07.233Z</time></trkpt><trkpt lat="45.7571126" lon="8.9706988"><ele>363.0</ele><time>2026-04-07T15:17:12.047Z</time></trkpt><trkpt lat="45.7571699" lon="8.9706554"><ele>363.8333333333333</ele><time>2026-04-07T15:17:21.211Z</time></trkpt><trkpt lat="45.7572656" lon="8.9705579"><ele>364.6666666666667</ele><time>2026-04-07T15:17:28.188Z</time></trkpt><trkpt lat="45.7573414" lon="8.9705079"><ele>365.5</ele><time>2026-04-07T15:17:33.127Z</time></trkpt><trkpt lat="45.7574039" lon="8.9704947"><ele>366.33333333333337</ele><time>2026-04-07T15:17:39.123Z</time></trkpt><trkpt lat="45.7574726" lon="8.9704833"><ele>367.1666666666667</ele><time>2026-04-07T15:17:43.196Z</time></trkpt><trkpt lat="45.7575432" lon="8.9704821"><ele>368.0</ele><time>2026-04-07T15:17:48.128Z</time></trkpt><trkpt lat="45.7576073" lon="8.9705129"><ele>368.0</ele><time>2026-04-07T15:17:52.979Z</time></trkpt><trkpt lat="45.7576747" lon="8.9705319"><ele>368.0</ele><time>2026-04-07T15:17:57.171Z</time></trkpt><trkpt lat="45.7577557" lon="8.9705215"><ele>368.0</ele><time>2026-04-07T15:18:01.184Z</time></trkpt><trkpt lat="45.7578355" lon="8.9705532"><ele>368.0</ele><time>2026-04-07T15:18:05.193Z</time></trkpt><trkpt lat="45.7579026" lon="8.9705478"><ele>368.0</ele><time>2026-04-07T15:18:08.131Z</time></trkpt><trkpt lat="45.7579669" lon="8.9705528"><ele>368.0</ele><time>2026-04-07T15:18:12.145Z</time></trkpt><trkpt lat="45.7580312" lon="8.9705037"><ele>368.0</ele><time>2026-04-07T15:18:27.191Z</time></trkpt><trkpt lat="45.7580963" lon="8.9704704"><ele>368.7142857142857</ele><time>2026-04-07T15:18:33.147Z</time></trkpt><trkpt lat="45.7581608" lon="8.9704529"><ele>369.4285714285714</ele><time>2026-04-07T15:18:37.157Z</time></trkpt><trkpt lat="45.758227" lon="8.9704447"><ele>370.1428571428571</ele><time>2026-04-07T15:18:43.15Z</time></trkpt><trkpt lat="45.7583218" lon="8.9704369"><ele>370.8571428571429</ele><time>2026-04-07T15:18:47.312Z</time></trkpt><trkpt lat="45.7583872" lon="8.9704233"><ele>371.57142857142856</ele><time>2026-04-07T15:18:51.423Z</time></trkpt><trkpt lat="45.7584571" lon="8.9703951"><ele>372.2857142857143</ele><time>2026-04-07T15:18:56.601Z</time></trkpt><trkpt lat="45.7585276" lon="8.9703799"><ele>373.0</ele><time>2026-04-07T15:19:01.887Z</time></trkpt><trkpt lat="45.7585935" lon="8.9703681"><ele>373.0</ele><time>2026-04-07T15:19:08.188Z</time></trkpt><trkpt lat="45.7586585" lon="8.9703336"><ele>373.0</ele><time>2026-04-07T15:19:14.071Z</time></trkpt><trkpt lat="45.7587214" lon="8.9703067"><ele>373.0</ele><time>2026-04-07T15:19:19.126Z</time></trkpt><trkpt lat="45.7587822" lon="8.9702393"><ele>373.0</ele><time>2026-04-07T15:19:26.128Z</time></trkpt><trkpt lat="45.7588594" lon="8.9701892"><ele>373.0</ele><time>2026-04-07T15:19:30.131Z</time></trkpt><trkpt lat="45.758924" lon="8.9701309"><ele>373.0</ele><time>2026-04-07T15:19:34.138Z</time></trkpt><trkpt lat="45.7589685" lon="8.9700659"><ele>373.0</ele><time>2026-04-07T15:19:38.222Z</time></trkpt><trkpt lat="45.7589765" lon="8.9699738"><ele>373.66666666666663</ele><time>2026-04-07T15:19:44.179Z</time></trkpt><trkpt lat="45.7590775" lon="8.9699238"><ele>374.3333333333333</ele><time>2026-04-07T15:19:53.146Z</time></trkpt><trkpt lat="45.7591177" lon="8.9698174"><ele>375.0</ele><time>2026-04-07T15:20:00.133Z</time></trkpt><trkpt lat="45.7591583" lon="8.969722"><ele>375.6666666666667</ele><time>2026-04-07T15:20:08.493Z</time></trkpt><trkpt lat="45.7592099" lon="8.9696598"><ele>376.33333333333337</ele><time>2026-04-07T15:20:14.967Z</time></trkpt><trkpt lat="45.7592708" lon="8.9696138"><ele>377.0</ele><time>2026-04-07T15:20:20.227Z</time></trkpt><trkpt lat="45.7593485" lon="8.9696015"><ele>377.4285714285714</ele><time>2026-04-07T15:20:24.163Z</time></trkpt><trkpt lat="45.7594117" lon="8.9695829"><ele>377.85714285714283</ele><time>2026-04-07T15:20:28.115Z</time></trkpt><trkpt lat="45.7594825" lon="8.969554"><ele>378.2857142857143</ele><time>2026-04-07T15:20:31.037Z</time></trkpt><trkpt lat="45.7595518" lon="8.969522"><ele>378.71428571428567</ele><time>2026-04-07T15:20:34.13Z</time></trkpt><trkpt lat="45.7596137" lon="8.9694873"><ele>379.14285714285717</ele><time>2026-04-07T15:20:38.14Z</time></trkpt><trkpt lat="45.759679" lon="8.9694685"><ele>379.57142857142856</ele><time>2026-04-07T15:20:45.129Z</time></trkpt><trkpt lat="45.7597377" lon="8.969432"><ele>380.0</ele><time>2026-04-07T15:20:52.129Z</time></trkpt><trkpt lat="45.7597829" lon="8.9693464"><ele>380.0</ele><time>2026-04-07T15:20:58.19Z</time></trkpt><trkpt lat="45.759828" lon="8.9692628"><ele>380.0</ele><time>2026-04-07T15:21:04.158Z</time></trkpt><trkpt lat="45.7598629" lon="8.9691735"><ele>380.0</ele><time>2026-04-07T15:21:12.49Z</time></trkpt><trkpt lat="45.7598858" lon="8.9690872"><ele>380.0</ele><time>2026-04-07T15:21:19.694Z</time></trkpt><trkpt lat="45.7598865" lon="8.9689885"><ele>380.0</ele><time>2026-04-07T15:21:24.982Z</time></trkpt><trkpt lat="45.7598787" lon="8.9688915"><ele>380.0</ele><time>2026-04-07T15:21:30.151Z</time></trkpt><trkpt lat="45.7598628" lon="8.9687853"><ele>380.0</ele><time>2026-04-07T15:21:35.129Z</time></trkpt><trkpt lat="45.7598271" lon="8.9686981"><ele>380.2857142857143</ele><time>2026-04-07T15:21:40.128Z</time></trkpt><trkpt lat="45.7597919" lon="8.9686084"><ele>380.57142857142856</ele><time>2026-04-07T15:21:47.251Z</time></trkpt><trkpt lat="45.7597653" lon="8.9685101"><ele>380.8571428571429</ele><time>2026-04-07T15:21:53.182Z</time></trkpt><trkpt lat="45.7597323" lon="8.9684254"><ele>381.1428571428571</ele><time>2026-04-07T15:21:57.128Z</time></trkpt><trkpt lat="45.7596713" lon="8.9683595"><ele>381.4285714285714</ele><time>2026-04-07T15:22:02.187Z</time></trkpt><trkpt lat="45.7596162" lon="8.9683121"><ele>381.7142857142857</ele><time>2026-04-07T15:22:10.252Z</time></trkpt><trkpt lat="45.7595657" lon="8.9682334"><ele>382.0</ele><time>2026-04-07T15:22:16.13Z</time></trkpt><trkpt lat="45.7595329" lon="8.9681543"><ele>385.0</ele><time>2026-04-07T15:22:22.129Z</time></trkpt><trkpt lat="45.759465" lon="8.9680633"><ele>385.0</ele><time>2026-04-07T15:23:25.321Z</time></trkpt></trkseg></trk></gpx>